Data Archive--March, 2003

Date Time Heat Index Current Temp Wind Chill High Temp Low Temp Humidity Dew Point Wind Speed Gust Wind Direction Rain Barometer
03/01/2003 12:00 a 31.3 31.3 31.3 31.5 31.2 70 22.7 0.0 0.0 --- 0.00 30.098
03/01/2003 12:30 a 31.4 31.4 31.4 31.5 31.3 71 23.1 0.0 0.0 --- 0.00 30.103
03/01/2003 1:00 a 31.3 31.3 31.3 31.4 31.2 72 23.3 0.0 0.0 --- 0.00 30.108
03/01/2003 1:30 a 31.2 31.2 31.2 31.3 31.1 72 23.2 0.0 0.0 --- 0.00 30.117
03/01/2003 2:00 a 31.3 31.3 31.3 31.4 31.2 73 23.7 0.0 1.0 E 0.00 30.107
03/01/2003 2:30 a 31.2 31.2 31.2 31.2 31.1 74 23.9 0.0 0.0 --- 0.00 30.096
03/01/2003 3:00 a 31.1 31.1 31.1 31.1 31.0 76 24.4 0.0 0.0 --- 0.00 30.103
03/01/2003 3:30 a 31.1 31.1 31.1 31.2 31.0 76 24.4 0.0 0.0 --- 0.00 30.093
03/01/2003 4:00 a 31.0 31.0 31.0 31.1 30.9 77 24.6 0.0 0.0 --- 0.00 30.092
03/01/2003 4:30 a 30.8 30.8 30.8 31.0 30.7 78 24.8 0.0 0.0 --- 0.00 30.094
03/01/2003 5:00 a 30.8 30.8 30.8 30.9 30.7 78 24.8 0.0 0.0 --- 0.00 30.083
03/01/2003 5:30 a 30.3 30.3 30.3 30.8 28.9 82 25.5 0.0 0.0 --- 0.00 30.096
03/01/2003 6:00 a 28.6 28.6 28.6 28.9 28.4 84 24.4 0.0 0.0 --- 0.00 30.091
03/01/2003 6:30 a 29.4 29.4 29.4 30.1 28.8 83 24.9 0.0 0.0 --- 0.00 30.100
03/01/2003 7:00 a 30.6 30.6 30.6 30.9 30.0 82 25.8 0.0 0.0 --- 0.00 30.104
03/01/2003 7:30 a 31.2 31.2 31.2 31.7 30.9 80 25.8 0.0 0.0 --- 0.00 30.113
03/01/2003 8:00 a 32.1 32.1 32.1 32.7 31.6 78 26.0 0.0 0.0 --- 0.00 30.119
03/01/2003 8:30 a 33.5 33.5 33.5 34.2 32.7 75 26.4 0.0 0.0 --- 0.00 30.123
03/01/2003 9:00 a 34.9 34.9 34.9 35.6 34.2 72 26.8 0.0 0.0 --- 0.00 30.130
03/01/2003 9:30 a 36.2 36.2 36.2 36.9 35.6 69 27.0 0.0 1.0 E 0.00 30.132
03/01/2003 10:00 a 37.7 37.7 37.7 38.6 36.9 64 26.6 0.0 1.0 E 0.00 30.132
03/01/2003 10:30 a 39.7 39.7 39.7 40.7 38.5 60 27.0 0.0 3.0 NE 0.00 30.125
03/01/2003 11:00 a 40.7 40.7 40.7 41.3 40.5 58 27.1 0.0 2.0 NE 0.00 30.116
03/01/2003 11:30 a 42.9 42.9 42.9 43.9 41.3 55 27.9 0.0 2.0 NE 0.00 30.110
03/01/2003 12:00 p 40.7 40.7 40.7 42.4 39.3 70 31.7 0.0 2.0 SSW 0.00 30.101
03/01/2003 12:30 p 38.6 38.6 38.6 39.4 38.1 70 29.7 0.0 2.0 NNE 0.00 30.097
03/01/2003 1:00 p 37.7 37.7 37.7 38.2 37.2 73 29.8 0.0 2.0 ENE 0.00 30.088
03/01/2003 1:30 p 37.4 37.4 37.4 37.9 37.1 70 28.5 0.0 3.0 NNE 0.00 30.065
03/01/2003 2:00 p 38.5 38.5 38.5 39.0 37.9 67 28.5 0.0 4.0 NNE 0.00 30.049
03/01/2003 2:30 p 39.4 39.4 39.4 39.7 38.9 66 29.0 0.0 4.0 NE 0.00 30.053
03/01/2003 3:00 p 39.1 39.1 39.1 39.4 38.8 65 28.3 0.0 4.0 NNE 0.00 30.049
03/01/2003 3:30 p 38.8 38.8 38.8 39.2 38.5 66 28.4 0.0 1.0 --- 0.00 30.047
03/01/2003 4:00 p 38.4 38.4 38.4 38.7 38.1 67 28.4 0.0 3.0 NE 0.00 30.041
03/01/2003 4:30 p 38.0 38.0 38.0 38.1 37.9 66 27.7 0.0 1.0 NNE 0.00 30.028
03/01/2003 5:00 p 37.7 37.7 37.7 37.9 37.3 67 27.7 0.0 0.0 --- 0.00 30.023
03/01/2003 5:30 p 37.1 37.1 37.1 37.4 37.0 67 27.2 0.0 2.0 NNE 0.00 30.020
03/01/2003 6:00 p 36.9 36.9 36.9 37.1 36.7 68 27.3 0.0 1.0 NNE 0.00 30.029
03/01/2003 6:30 p 36.6 36.6 36.6 36.7 36.4 70 27.8 0.0 2.0 NNE 0.00 30.027
03/01/2003 7:00 p 36.5 36.5 36.5 36.6 36.4 72 28.3 0.0 2.0 N 0.00 30.018
03/01/2003 7:30 p 36.3 36.3 36.3 36.4 36.2 73 28.5 0.0 1.0 N 0.00 30.009
03/01/2003 8:00 p 36.2 36.2 36.2 36.3 36.1 75 29.1 0.0 1.0 N 0.00 30.004
03/01/2003 8:30 p 36.1 36.1 36.1 36.2 36.1 77 29.6 0.0 1.0 --- 0.00 29.997
03/01/2003 9:00 p 36.2 36.2 36.2 36.3 36.1 77 29.7 0.0 0.0 --- 0.00 29.993
03/01/2003 9:30 p 36.0 36.0 36.0 36.2 35.8 79 30.1 0.0 1.0 N 0.00 29.988
03/01/2003 10:00 p 35.7 35.7 35.7 35.9 35.5 80 30.1 0.0 0.0 --- 0.00 29.974
03/01/2003 10:30 p 35.5 35.5 35.5 35.6 35.3 84 31.2 0.0 0.0 --- 0.00 29.957
03/01/2003 11:00 p 35.3 35.3 35.3 35.5 35.1 82 30.4 0.0 0.0 --- 0.00 29.947
03/01/2003 11:30 p 35.6 35.6 35.6 35.7 35.4 81 30.4 0.0 0.0 --- 0.00 29.945
03/02/2003 12:00 a 35.4 35.4 35.4 35.7 35.3 81 30.2 0.0 0.0 --- 0.00 29.934
03/02/2003 12:30 a 35.4 35.4 35.4 35.5 35.2 81 30.2 0.0 0.0 --- 0.00 29.922
03/02/2003 1:00 a 35.2 35.2 35.2 35.5 35.1 81 30.0 0.0 0.0 --- 0.00 29.911
03/02/2003 1:30 a 35.5 35.5 35.5 35.6 35.5 81 30.3 0.0 0.0 --- 0.00 29.897
03/02/2003 2:00 a 35.5 35.5 35.5 35.6 35.5 80 30.0 0.0 0.0 --- 0.00 29.867
03/02/2003 2:30 a 35.5 35.5 35.5 35.6 35.5 81 30.3 0.0 0.0 --- 0.00 29.841
03/02/2003 3:00 a 35.5 35.5 35.5 35.6 35.5 81 30.3 0.0 0.0 --- 0.00 29.820
03/02/2003 3:30 a 35.4 35.4 35.4 35.5 35.4 83 30.8 0.0 0.0 --- 0.00 29.807
03/02/2003 4:00 a 35.6 35.6 35.6 35.7 35.4 84 31.3 0.0 0.0 --- 0.00 29.789
03/02/2003 4:30 a 35.6 35.6 35.6 35.6 35.4 89 32.7 0.0 0.0 --- 0.00 29.765
03/02/2003 5:00 a 35.2 35.2 35.2 35.4 35.0 93 33.4 0.0 0.0 --- 0.01 29.758
03/02/2003 5:30 a 35.1 35.1 35.1 35.3 35.0 94 33.6 0.0 0.0 --- 0.05 29.734
03/02/2003 6:00 a 35.4 35.4 35.4 35.6 35.1 94 33.8 0.0 0.0 --- 0.01 29.711
03/02/2003 6:30 a 35.7 35.7 35.7 35.9 35.6 94 34.1 0.0 0.0 --- 0.00 29.681
03/02/2003 7:00 a 36.1 36.1 36.1 36.3 35.8 95 34.8 0.0 2.0 N 0.00 29.658
03/02/2003 7:30 a 36.5 36.5 36.5 36.8 36.3 95 35.2 0.0 2.0 N 0.00 29.656
03/02/2003 8:00 a 36.8 36.8 36.8 36.9 36.7 95 35.5 0.0 0.0 --- 0.03 29.632
03/02/2003 8:30 a 37.2 37.2 37.2 37.5 36.9 95 35.9 0.0 1.0 N 0.08 29.608
03/02/2003 9:00 a 37.6 37.6 37.6 37.7 37.4 96 36.6 0.0 0.0 --- 0.05 29.561
03/02/2003 9:30 a 37.4 37.4 37.4 37.5 37.3 96 36.4 0.0 3.0 N 0.09 29.552
03/02/2003 10:00 a 37.8 37.8 37.8 38.1 37.3 96 36.8 0.0 2.0 E 0.07 29.522
03/02/2003 10:30 a 37.9 37.9 37.9 38.1 37.8 96 36.9 0.0 2.0 E 0.09 29.512
03/02/2003 11:00 a 38.5 38.5 38.5 38.9 38.1 96 37.5 0.0 2.0 E 0.08 29.499
03/02/2003 11:30 a 38.8 38.8 38.8 39.3 38.3 96 37.8 0.0 3.0 SE 0.09 29.486
03/02/2003 12:00 p 39.2 39.2 39.2 39.8 38.8 96 38.2 0.0 3.0 SE 0.04 29.455
03/02/2003 12:30 p 39.9 39.9 39.9 40.3 39.3 96 38.9 1.0 4.0 SE 0.04 29.445
03/02/2003 1:00 p 40.0 40.0 40.0 41.0 39.3 96 39.0 1.0 4.0 SSE 0.03 29.410
03/02/2003 1:30 p 41.2 41.2 41.2 41.9 40.7 96 40.1 0.0 3.0 SSE 0.01 29.386
03/02/2003 2:00 p 41.6 41.6 41.6 42.5 40.8 96 40.5 0.0 2.0 SSE 0.01 29.339
03/02/2003 2:30 p 42.2 42.2 42.2 42.6 42.0 96 41.1 0.0 0.0 --- 0.00 29.337
03/02/2003 3:00 p 43.9 43.9 43.9 44.8 42.5 96 42.8 0.0 2.0 SSE 0.00 29.329
03/02/2003 3:30 p 44.6 44.6 44.6 45.1 44.3 95 43.3 0.0 4.0 SSE 0.00 29.315
03/02/2003 4:00 p 44.2 44.2 44.2 44.6 43.8 96 43.1 0.0 3.0 SSE 0.00 29.313
03/02/2003 4:30 p 44.1 44.1 44.1 44.3 44.0 96 43.0 0.0 4.0 SSE 0.00 29.302
03/02/2003 5:00 p 43.2 43.2 43.2 44.0 42.5 96 42.1 0.0 3.0 SSE 0.00 29.310
03/02/2003 5:30 p 42.1 42.1 42.1 42.6 41.1 96 41.0 0.0 2.0 SSE 0.00 29.321
03/02/2003 6:00 p 40.9 40.9 40.9 41.1 40.8 96 39.9 0.0 3.0 S 0.00 29.334
03/02/2003 6:30 p 40.5 40.5 40.5 41.0 39.6 96 39.5 0.0 4.0 S 0.00 29.343
03/02/2003 7:00 p 38.8 38.8 38.8 39.6 38.2 96 37.8 0.0 0.0 --- 0.00 29.357
03/02/2003 7:30 p 38.3 38.3 38.3 38.5 38.2 96 37.3 0.0 1.0 SSE 0.00 29.375
03/02/2003 8:00 p 38.6 38.6 38.6 38.7 38.5 96 37.6 0.0 2.0 SSE 0.00 29.384
03/02/2003 8:30 p 38.7 38.7 38.7 38.9 38.5 96 37.7 0.0 4.0 SSE 0.00 29.392
03/02/2003 9:00 p 38.9 38.9 38.9 39.6 38.5 97 38.1 1.0 6.0 SSE 0.00 29.405
03/02/2003 9:30 p 39.4 39.4 39.4 39.7 39.2 95 38.1 2.0 7.0 SSE 0.00 29.412
03/02/2003 10:00 p 39.7 39.7 39.7 40.0 39.5 93 37.8 2.0 11.0 SSE 0.00 29.425
03/02/2003 10:30 p 39.7 39.7 39.7 39.9 39.4 90 37.0 3.0 12.0 SSE 0.01 29.434
03/02/2003 11:00 p 39.1 39.1 39.1 39.6 38.1 88 35.9 3.0 10.0 SSE 0.00 29.432
03/02/2003 11:30 p 37.3 37.3 37.3 38.1 36.7 88 34.1 2.0 8.0 SSE 0.00 29.431
03/03/2003 12:00 a 36.3 36.3 36.3 36.8 36.0 87 32.8 2.0 8.0 SSE 0.00 29.441
03/03/2003 12:30 a 35.9 35.9 35.9 36.2 35.7 86 32.1 2.0 9.0 SSE 0.00 29.455
03/03/2003 1:00 a 36.7 36.7 36.7 37.4 36.0 87 33.2 4.0 17.0 SSE 0.00 29.478
03/03/2003 1:30 a 35.7 35.7 35.7 35.9 35.6 83 31.1 3.0 11.0 SSE 0.00 29.493
03/03/2003 2:00 a 34.8 34.8 34.8 35.6 34.2 80 29.3 3.0 12.0 SSE 0.00 29.511
03/03/2003 2:30 a 33.4 33.4 33.4 34.2 32.0 74 26.0 3.0 17.0 SSE 0.00 29.539
03/03/2003 3:00 a 30.2 30.2 30.2 31.9 28.7 72 22.3 3.0 12.0 SSE 0.00 29.570
03/03/2003 3:30 a 27.4 27.4 27.4 28.7 25.9 62 16.1 4.0 17.0 S 0.00 29.608
03/03/2003 4:00 a 24.6 24.6 24.6 25.9 23.6 68 15.6 3.0 13.0 SSE 0.00 29.646
03/03/2003 4:30 a 22.2 22.2 22.2 23.7 20.4 56 8.9 4.0 17.0 SSW 0.00 29.688
03/03/2003 5:00 a 19.3 19.3 19.3 20.4 17.8 46 1.9 4.0 17.0 SSW 0.00 29.726
03/03/2003 5:30 a 16.7 16.7 16.7 17.8 15.7 43 -1.9 4.0 17.0 SSW 0.00 29.772
03/03/2003 6:00 a 14.6 14.6 10.4 15.8 13.4 41 -4.8 5.0 17.0 SSW 0.00 29.802
03/03/2003 6:30 a 12.6 12.6 12.6 13.4 12.1 43 -5.6 4.0 16.0 SSW 0.00 29.834
03/03/2003 7:00 a 11.9 11.9 11.9 12.7 11.7 42 -6.8 3.0 11.0 SSW 0.00 29.872
03/03/2003 7:30 a 14.9 14.9 14.9 16.5 12.7 39 -5.6 4.0 16.0 SSW 0.00 29.887
03/03/2003 8:00 a 19.3 19.3 19.3 20.8 16.5 30 -7.1 4.0 16.0 SSW 0.00 29.904
03/03/2003 8:30 a 19.0 19.0 15.0 20.6 17.6 33 -5.4 5.0 16.0 SSW 0.00 29.919
03/03/2003 9:00 a 21.2 21.2 21.2 23.4 17.7 33 -3.4 3.0 14.0 SSW 0.00 29.939
03/03/2003 9:30 a 21.7 21.7 21.7 24.1 18.5 31 -4.3 4.0 13.0 SSW 0.00 29.957
03/03/2003 10:00 a 22.7 22.7 22.7 24.9 18.5 27 -6.2 3.0 9.0 SSW 0.00 29.971
03/03/2003 10:30 a 22.1 22.1 22.1 24.0 19.7 33 -2.6 3.0 9.0 SSW 0.00 29.974
03/03/2003 11:00 a 22.9 22.9 22.9 24.6 20.5 27 -6.1 3.0 12.0 SSW 0.00 29.973
03/03/2003 11:30 a 23.6 23.6 23.6 25.7 22.5 27 -5.5 3.0 10.0 SSW 0.00 29.979
03/03/2003 12:00 p 25.2 25.2 25.2 27.4 23.5 26 -4.9 3.0 8.0 SSW 0.00 29.974
03/03/2003 12:30 p 28.7 28.7 28.7 29.5 27.4 27 -1.0 4.0 11.0 S 0.00 29.977
03/03/2003 1:00 p 25.8 25.8 25.8 29.4 22.5 31 -0.7 3.0 11.0 S 0.00 29.972
03/03/2003 1:30 p 21.8 21.8 21.8 22.4 21.5 29 -5.6 4.0 12.0 S 0.00 29.970
03/03/2003 2:00 p 22.4 22.4 22.4 22.5 22.1 32 -3.0 3.0 10.0 S 0.00 29.980
03/03/2003 2:30 p 22.7 22.7 22.7 23.3 22.3 31 -3.4 3.0 9.0 S 0.00 30.005
03/03/2003 3:00 p 22.4 22.4 22.4 22.6 22.1 31 -3.6 3.0 8.0 S 0.00 30.002
03/03/2003 3:30 p 22.4 22.4 22.4 22.7 22.1 31 -3.6 3.0 11.0 S 0.00 29.990
03/03/2003 4:00 p 21.7 21.7 21.7 22.5 21.2 31 -4.3 2.0 9.0 SSE 0.00 29.988
03/03/2003 4:30 p 21.2 21.2 21.2 21.4 21.0 27 -7.6 2.0 10.0 SSE 0.00 29.999
03/03/2003 5:00 p 20.7 20.7 20.7 21.0 20.5 28 -7.2 3.0 10.0 SSE 0.00 30.010
03/03/2003 5:30 p 20.0 20.0 20.0 20.5 19.3 30 -6.4 2.0 7.0 SSE 0.00 30.026
03/03/2003 6:00 p 19.1 19.1 19.1 19.3 18.9 32 -5.9 2.0 7.0 SSE 0.00 30.038
03/03/2003 6:30 p 18.2 18.2 18.2 18.9 17.5 36 -4.3 1.0 8.0 SSE 0.00 30.052
03/03/2003 7:00 p 17.4 17.4 17.4 17.7 17.1 34 -6.2 1.0 5.0 SSE 0.00 30.061
03/03/2003 7:30 p 17.3 17.3 17.3 17.5 17.1 34 -6.2 1.0 3.0 SSE 0.00 30.075
03/03/2003 8:00 p 16.9 16.9 16.9 17.4 16.2 41 -2.7 0.0 3.0 SSE 0.00 30.089
03/03/2003 8:30 p 16.6 16.6 16.6 17.0 16.1 36 -5.7 0.0 3.0 SSE 0.00 30.101
03/03/2003 9:00 p 16.5 16.5 16.5 16.9 16.0 40 -3.6 0.0 1.0 SSE 0.00 30.097
03/03/2003 9:30 p 15.8 15.8 15.8 16.1 15.1 39 -4.8 0.0 0.0 --- 0.00 30.090
03/03/2003 10:00 p 14.5 14.5 14.5 15.2 13.6 47 -2.0 0.0 0.0 --- 0.00 30.094
03/03/2003 10:30 p 13.1 13.1 13.1 13.6 12.3 52 -1.2 0.0 0.0 --- 0.00 30.091
03/03/2003 11:00 p 11.8 11.8 11.8 12.2 11.5 59 0.2 0.0 0.0 --- 0.00 30.086
03/03/2003 11:30 p 11.4 11.4 11.4 11.6 11.2 65 1.9 0.0 0.0 --- 0.00 30.082
03/04/2003 12:00 a 10.6 10.6 10.6 11.3 10.2 65 1.2 0.0 0.0 --- 0.00 30.083
03/04/2003 12:30 a 10.5 10.5 10.5 10.8 10.2 66 1.4 0.0 0.0 --- 0.00 30.085
03/04/2003 1:00 a 10.1 10.1 10.1 10.6 9.6 69 2.0 0.0 0.0 --- 0.00 30.094
03/04/2003 1:30 a 10.0 10.0 10.0 10.2 9.5 71 2.5 0.0 0.0 --- 0.00 30.112
03/04/2003 2:00 a 9.4 9.4 9.4 9.6 9.1 74 2.8 0.0 0.0 --- 0.00 30.114
03/04/2003 2:30 a 9.0 9.0 9.0 9.6 8.5 78 3.6 0.0 0.0 --- 0.00 30.110
03/04/2003 3:00 a 8.8 8.8 8.8 9.5 8.3 77 3.1 0.0 0.0 --- 0.00 30.101
03/04/2003 3:30 a 9.3 9.3 9.3 9.5 9.0 78 3.8 0.0 0.0 --- 0.00 30.096
03/04/2003 4:00 a 9.4 9.4 9.4 9.5 9.0 79 4.2 0.0 0.0 --- 0.00 30.096
03/04/2003 4:30 a 10.8 10.8 10.8 12.0 9.4 77 5.0 0.0 0.0 --- 0.00 30.104
03/04/2003 5:00 a 13.1 13.1 13.1 13.9 12.0 71 5.5 0.0 0.0 --- 0.00 30.116
03/04/2003 5:30 a 14.5 14.5 14.5 15.0 13.9 70 6.5 0.0 0.0 --- 0.00 30.146
03/04/2003 6:00 a 15.3 15.3 15.3 15.6 15.0 64 5.3 0.0 0.0 --- 0.00 30.166
03/04/2003 6:30 a 16.3 16.3 16.3 16.9 15.6 62 5.6 0.0 0.0 --- 0.00 30.161
03/04/2003 7:00 a 17.6 17.6 17.6 18.3 16.9 56 4.6 0.0 0.0 --- 0.00 30.165
03/04/2003 7:30 a 19.0 19.0 19.0 19.9 18.2 53 4.7 0.0 0.0 --- 0.00 30.166
03/04/2003 8:00 a 21.2 21.2 21.2 22.3 19.9 46 3.7 0.0 0.0 --- 0.00 30.148
03/04/2003 8:30 a 23.5 23.5 23.5 24.4 22.3 42 3.8 0.0 1.0 SSE 0.00 30.146
03/04/2003 9:00 a 25.2 25.2 25.2 26.3 24.4 40 4.3 0.0 2.0 SSE 0.00 30.145
03/04/2003 9:30 a 27.7 27.7 27.7 28.9 26.3 35 3.6 0.0 3.0 E 0.00 30.136
03/04/2003 10:00 a 33.6 33.6 33.6 36.2 28.0 32 6.9 0.0 3.0 NNE 0.00 30.108
03/04/2003 10:30 a 33.9 33.9 33.9 35.8 32.5 35 9.2 1.0 3.0 NE 0.00 30.110
03/04/2003 11:00 a 35.7 35.7 35.7 38.4 33.2 28 5.8 1.0 3.0 NNE 0.00 30.101
03/04/2003 11:30 a 40.1 40.1 40.1 42.6 37.9 27 8.8 1.0 3.0 SSE 0.00 30.094
03/04/2003 12:00 p 39.7 39.7 39.7 43.5 37.8 25 6.8 1.0 6.0 NNE 0.00 30.077
03/04/2003 12:30 p 43.7 43.7 43.7 47.5 41.1 25 10.2 1.0 3.0 S 0.00 30.055
03/04/2003 1:00 p 43.3 43.3 43.3 47.4 38.8 33 16.1 1.0 4.0 SSW 0.00 30.044
03/04/2003 1:30 p 38.8 38.8 38.8 39.1 38.6 36 14.1 1.0 5.0 S 0.00 30.024
03/04/2003 2:00 p 38.6 38.6 38.6 38.9 38.5 37 14.6 1.0 7.0 S 0.00 30.009
03/04/2003 2:30 p 39.0 39.0 39.0 39.3 38.7 37 15.0 0.0 3.0 NNE 0.00 30.003
03/04/2003 3:00 p 39.2 39.2 39.2 39.6 39.1 38 15.7 1.0 4.0 NNE 0.00 29.987
03/04/2003 3:30 p 39.7 39.7 39.7 40.0 39.6 38 16.2 1.0 4.0 S 0.00 29.981
03/04/2003 4:00 p 39.5 39.5 39.5 39.8 39.1 41 17.8 1.0 5.0 S 0.00 29.976
03/04/2003 4:30 p 39.0 39.0 39.0 39.1 38.8 43 18.4 0.0 2.0 ESE 0.00 29.978
03/04/2003 5:00 p 38.4 38.4 38.4 38.9 37.6 47 19.9 0.0 2.0 SE 0.00 29.971
03/04/2003 5:30 p 36.6 36.6 36.6 37.6 35.2 53 21.1 0.0 1.0 NE 0.00 29.972
03/04/2003 6:00 p 33.9 33.9 33.9 35.2 33.1 63 22.6 0.0 1.0 --- 0.00 29.984
03/04/2003 6:30 p 32.2 32.2 32.2 33.2 31.1 66 22.1 0.0 0.0 --- 0.00 29.982
03/04/2003 7:00 p 30.5 30.5 30.5 31.1 29.7 73 22.9 0.0 0.0 --- 0.00 29.985
03/04/2003 7:30 p 29.6 29.6 29.6 29.7 29.4 73 22.0 0.0 0.0 --- 0.00 29.966
03/04/2003 8:00 p 29.2 29.2 29.2 29.5 28.8 75 22.3 0.0 0.0 --- 0.00 29.970
03/04/2003 8:30 p 28.7 28.7 28.7 28.9 28.4 78 22.7 0.0 0.0 --- 0.00 29.975
03/04/2003 9:00 p 27.9 27.9 27.9 28.4 27.5 80 22.5 0.0 0.0 --- 0.00 29.972
03/04/2003 9:30 p 28.0 28.0 28.0 28.4 27.8 80 22.6 0.0 0.0 --- 0.00 29.967
03/04/2003 10:00 p 28.7 28.7 28.7 29.2 28.4 79 23.0 0.0 0.0 --- 0.00 29.953
03/04/2003 10:30 p 30.0 30.0 30.0 30.2 29.2 78 24.0 0.0 0.0 --- 0.00 29.938
03/04/2003 11:00 p 30.1 30.1 30.1 30.2 29.9 80 24.7 0.0 0.0 --- 0.00 29.932
03/04/2003 11:30 p 29.8 29.8 29.8 30.0 29.8 80 24.4 0.0 0.0 --- 0.00 29.926
03/05/2003 12:00 a 29.9 29.9 29.9 30.3 29.4 82 25.1 0.0 1.0 NE 0.00 29.914
03/05/2003 12:30 a 29.2 29.2 29.2 29.4 29.0 82 24.4 0.0 0.0 --- 0.00 29.902
03/05/2003 1:00 a 29.5 29.5 29.5 30.0 29.3 82 24.7 0.0 0.0 --- 0.00 29.892
03/05/2003 1:30 a 30.3 30.3 30.3 30.5 30.0 81 25.2 0.0 0.0 --- 0.00 29.867
03/05/2003 2:00 a 30.8 30.8 30.8 31.1 30.3 80 25.4 0.0 0.0 --- 0.00 29.838
03/05/2003 2:30 a 31.5 31.5 31.5 32.1 31.1 80 26.1 0.0 0.0 --- 0.00 29.822
03/05/2003 3:00 a 32.7 32.7 32.7 33.3 32.0 79 26.9 0.0 1.0 --- 0.00 29.797
03/05/2003 3:30 a 33.6 33.6 33.6 33.8 33.3 80 28.1 0.0 2.0 NE 0.00 29.788
03/05/2003 4:00 a 34.0 34.0 34.0 34.2 33.8 81 28.8 0.0 1.0 --- 0.00 29.777
03/05/2003 4:30 a 34.0 34.0 34.0 34.1 33.9 90 31.4 0.0 0.0 --- 0.00 29.766
03/05/2003 5:00 a 33.7 33.7 33.7 33.9 33.6 94 32.2 0.0 0.0 --- 0.02 29.736
03/05/2003 5:30 a 33.7 33.7 33.7 34.0 33.6 94 32.2 0.0 0.0 --- 0.01 29.724
03/05/2003 6:00 a 34.1 34.1 34.1 34.3 34.0 95 32.8 0.0 0.0 --- 0.04 29.715
03/05/2003 6:30 a 34.6 34.6 34.6 34.9 34.3 95 33.3 0.0 0.0 --- 0.07 29.702
03/05/2003 7:00 a 35.1 35.1 35.1 35.2 34.9 95 33.8 0.0 0.0 --- 0.05 29.685
03/05/2003 7:30 a 35.5 35.5 35.5 35.8 35.2 95 34.2 0.0 0.0 --- 0.02 29.663
03/05/2003 8:00 a 36.0 36.0 36.0 36.5 35.8 96 35.0 0.0 0.0 --- 0.04 29.656
03/05/2003 8:30 a 36.9 36.9 36.9 37.3 36.5 96 35.9 0.0 0.0 --- 0.04 29.644
03/05/2003 9:00 a 37.6 37.6 37.6 38.0 37.3 96 36.6 0.0 1.0 NE 0.03 29.631
03/05/2003 9:30 a 38.6 38.6 38.6 39.2 38.0 96 37.6 0.0 1.0 --- 0.04 29.618
03/05/2003 10:00 a 39.8 39.8 39.8 40.1 39.3 96 38.8 0.0 2.0 NE 0.02 29.602
03/05/2003 10:30 a 39.4 39.4 39.4 39.6 39.2 96 38.4 0.0 1.0 ESE 0.03 29.586
03/05/2003 11:00 a 40.5 40.5 40.5 41.6 39.5 96 39.5 0.0 0.0 --- 0.01 29.570
03/05/2003 11:30 a 41.4 41.4 41.4 42.7 40.9 96 40.3 0.0 2.0 ESE 0.00 29.547
03/05/2003 12:00 p 42.9 42.9 42.9 43.8 42.5 96 41.8 0.0 1.0 --- 0.00 29.553
03/05/2003 12:30 p 45.3 45.3 45.3 48.1 43.8 94 43.7 0.0 1.0 --- 0.00 29.509
03/05/2003 1:00 p 48.8 48.8 48.8 49.1 48.1 94 47.2 0.0 1.0 --- 0.00 29.501
03/05/2003 1:30 p 49.7 49.7 49.7 51.0 48.3 93 47.8 0.0 2.0 ESE 0.00 29.473
03/05/2003 2:00 p 50.9 50.9 50.9 51.3 50.5 94 49.2 0.0 1.0 --- 0.00 29.478
03/05/2003 2:30 p 50.0 50.0 50.0 50.6 49.3 93 48.1 0.0 3.0 SSE 0.00 29.475
03/05/2003 3:00 p 48.6 48.6 48.6 49.4 48.2 93 46.7 1.0 5.0 SSE 0.00 29.487
03/05/2003 3:30 p 47.6 47.6 47.6 48.3 47.4 93 45.7 1.0 4.0 SSE 0.00 29.490
03/05/2003 4:00 p 47.1 47.1 47.1 47.5 46.6 93 45.2 0.0 3.0 S 0.00 29.494
03/05/2003 4:30 p 46.7 46.7 46.7 46.8 46.4 93 44.8 0.0 3.0 SSW 0.00 29.511
03/05/2003 5:00 p 45.6 45.6 45.6 46.4 44.7 94 44.0 0.0 2.0 SSW 0.00 29.518
03/05/2003 5:30 p 43.6 43.6 43.6 44.7 43.0 95 42.3 0.0 1.0 SSW 0.00 29.524
03/05/2003 6:00 p 42.7 42.7 42.7 43.3 42.2 95 41.4 0.0 1.0 SSW 0.00 29.542
03/05/2003 6:30 p 42.7 42.7 42.7 43.0 42.5 95 41.4 0.0 1.0 --- 0.00 29.563
03/05/2003 7:00 p 42.3 42.3 42.3 42.9 41.4 94 40.7 0.0 1.0 SSW 0.00 29.559
03/05/2003 7:30 p 41.0 41.0 41.0 41.4 40.8 95 39.7 0.0 1.0 SSW 0.00 29.568
03/05/2003 8:00 p 40.8 40.8 40.8 41.4 40.3 95 39.5 0.0 2.0 SSW 0.00 29.583
03/05/2003 8:30 p 40.7 40.7 40.7 41.1 40.1 94 39.1 0.0 1.0 --- 0.00 29.589
03/05/2003 9:00 p 40.0 40.0 40.0 40.2 39.6 94 38.4 0.0 2.0 S 0.00 29.610
03/05/2003 9:30 p 39.4 39.4 39.4 39.7 39.0 94 37.8 0.0 1.0 S 0.00 29.616
03/05/2003 10:00 p 38.4 38.4 38.4 39.0 37.8 95 37.1 0.0 0.0 --- 0.00 29.631
03/05/2003 10:30 p 37.3 37.3 37.3 37.9 36.8 94 35.7 0.0 1.0 S 0.00 29.629
03/05/2003 11:00 p 37.6 37.6 37.6 38.8 36.8 95 36.3 0.0 2.0 S 0.00 29.640
03/05/2003 11:30 p 40.0 40.0 40.0 40.7 38.8 93 38.1 1.0 4.0 SSE 0.00 29.664
03/06/2003 12:00 a 40.3 40.3 40.3 40.7 39.8 91 37.9 0.0 5.0 SSE 0.00 29.659
03/06/2003 12:30 a 39.3 39.3 39.3 39.8 38.6 92 37.2 0.0 1.0 SSE 0.00 29.653
03/06/2003 1:00 a 38.6 38.6 38.6 39.0 38.2 91 36.2 0.0 7.0 SSE 0.00 29.675
03/06/2003 1:30 a 39.1 39.1 39.1 39.4 38.5 89 36.1 0.0 2.0 SSE 0.00 29.677
03/06/2003 2:00 a 38.4 38.4 38.4 38.7 38.1 85 34.3 0.0 3.0 SSE 0.00 29.668
03/06/2003 2:30 a 38.2 38.2 38.2 38.2 38.1 81 32.9 0.0 2.0 SSE 0.00 29.660
03/06/2003 3:00 a 37.6 37.6 37.6 38.1 36.9 83 32.9 0.0 2.0 SSW 0.00 29.651
03/06/2003 3:30 a 36.5 36.5 36.5 37.1 35.2 92 34.4 1.0 5.0 S 0.01 29.662
03/06/2003 4:00 a 34.5 34.5 34.5 35.1 34.0 94 33.0 0.0 3.0 S 0.01 29.652
03/06/2003 4:30 a 33.5 33.5 33.5 34.0 33.3 94 32.0 0.0 2.0 WSW 0.01 29.666
03/06/2003 5:00 a 33.5 33.5 33.5 33.6 33.4 95 32.2 0.0 0.0 --- 0.01 29.662
03/06/2003 5:30 a 33.0 33.0 33.0 33.4 32.6 95 31.7 0.0 0.0 --- 0.02 29.671
03/06/2003 6:00 a 32.6 32.6 32.6 32.6 32.5 95 31.3 0.0 1.0 --- 0.02 29.698
03/06/2003 6:30 a 32.4 32.4 32.4 32.6 32.2 95 31.1 0.0 2.0 WSW 0.02 29.672
03/06/2003 7:00 a 32.1 32.1 32.1 32.2 32.0 95 30.8 0.0 1.0 WSW 0.03 29.668
03/06/2003 7:30 a 32.1 32.1 32.1 32.1 32.0 95 30.8 0.0 2.0 WNW 0.02 29.665
03/06/2003 8:00 a 31.7 31.7 31.7 32.0 31.5 95 30.4 1.0 5.0 NNW 0.01 29.687
03/06/2003 8:30 a 31.8 31.8 31.8 31.8 31.7 95 30.5 0.0 4.0 NW 0.02 29.696
03/06/2003 9:00 a 31.6 31.6 31.6 31.8 31.3 95 30.3 0.0 0.0 --- 0.00 29.668
03/06/2003 9:30 a 30.7 30.7 30.7 31.3 30.1 95 29.4 0.0 0.0 --- 0.00 29.651
03/06/2003 10:00 a 29.8 29.8 29.8 30.1 29.4 94 28.3 0.0 0.0 --- 0.00 29.628
03/06/2003 10:30 a 29.0 29.0 29.0 29.5 28.7 94 27.5 0.0 0.0 --- 0.00 29.621
03/06/2003 11:00 a 28.5 28.5 28.5 28.7 28.4 94 27.0 0.0 0.0 --- 0.00 29.616
03/06/2003 11:30 a 28.2 28.2 28.2 28.6 28.0 94 26.7 0.0 0.0 --- 0.00 29.639
03/06/2003 12:00 p 28.2 28.2 28.2 28.3 27.9 93 26.4 0.0 0.0 --- 0.00 29.659
03/06/2003 12:30 p 27.9 27.9 27.9 28.1 27.6 93 26.1 0.0 0.0 --- 0.00 29.634
03/06/2003 1:00 p 27.9 27.9 27.9 28.5 27.6 92 25.9 0.0 0.0 --- 0.00 29.646
03/06/2003 1:30 p 28.5 28.5 28.5 28.7 28.3 93 26.7 0.0 0.0 --- 0.00 29.632
03/06/2003 2:00 p 28.5 28.5 28.5 28.9 28.3 93 26.7 0.0 0.0 --- 0.00 29.626
03/06/2003 2:30 p 29.2 29.2 29.2 29.3 28.9 93 27.4 0.0 0.0 --- 0.00 29.649
03/06/2003 3:00 p 27.8 27.8 27.8 28.9 27.2 92 25.8 0.0 0.0 --- 0.00 29.681
03/06/2003 3:30 p 27.2 27.2 27.2 27.3 27.2 92 25.2 0.0 0.0 --- 0.00 29.716
03/06/2003 4:00 p 27.1 27.1 27.1 27.2 27.0 92 25.1 0.0 0.0 --- 0.00 29.741
03/06/2003 4:30 p 27.0 27.0 27.0 27.2 26.9 92 25.0 0.0 0.0 --- 0.00 29.766
03/06/2003 5:00 p 26.2 26.2 26.2 26.9 25.6 91 23.9 0.0 0.0 --- 0.00 29.797
03/06/2003 5:30 p 25.1 25.1 25.1 25.6 24.7 91 22.8 0.0 0.0 --- 0.00 29.829
03/06/2003 6:00 p 24.5 24.5 24.5 24.7 24.3 91 22.3 0.0 0.0 --- 0.00 29.860
03/06/2003 6:30 p 23.7 23.7 23.7 24.3 22.9 89 20.9 0.0 0.0 --- 0.00 29.880
03/06/2003 7:00 p 22.3 22.3 22.3 23.0 21.9 88 19.3 0.0 0.0 --- 0.00 29.905
03/06/2003 7:30 p 21.5 21.5 21.5 21.9 21.1 88 18.5 0.0 0.0 --- 0.00 29.926
03/06/2003 8:00 p 20.6 20.6 20.6 21.1 20.1 88 17.6 0.0 0.0 --- 0.00 29.940
03/06/2003 8:30 p 19.9 19.9 19.9 20.1 19.5 87 16.7 0.0 0.0 --- 0.00 29.958
03/06/2003 9:00 p 19.7 19.7 19.7 19.9 19.4 87 16.5 0.0 0.0 --- 0.00 29.985
03/06/2003 9:30 p 19.3 19.3 19.3 19.8 19.0 86 15.8 0.0 0.0 --- 0.00 30.005
03/06/2003 10:00 p 18.3 18.3 18.3 19.0 17.9 86 14.8 0.0 0.0 --- 0.00 30.009
03/06/2003 10:30 p 17.9 17.9 17.9 18.1 17.7 86 14.4 0.0 0.0 --- 0.00 30.019
03/06/2003 11:00 p 17.2 17.2 17.2 17.7 16.8 85 13.5 0.0 0.0 --- 0.00 30.032
03/06/2003 11:30 p 16.4 16.4 16.4 16.9 15.9 85 12.7 0.0 0.0 --- 0.00 30.060
03/07/2003 12:00 a 15.4 15.4 15.4 16.0 14.7 84 11.4 0.0 0.0 --- 0.00 30.072
03/07/2003 12:30 a 14.6 14.6 14.6 14.9 14.4 84 10.7 0.0 0.0 --- 0.00 30.089
03/07/2003 1:00 a 14.4 14.4 14.4 14.9 13.6 83 10.2 0.0 0.0 --- 0.00 30.110
03/07/2003 1:30 a 14.2 14.2 14.2 14.6 13.7 84 10.3 0.0 0.0 --- 0.00 30.130
03/07/2003 2:00 a 14.2 14.2 14.2 14.4 13.6 83 10.0 0.0 0.0 --- 0.00 30.133
03/07/2003 2:30 a 12.8 12.8 12.8 13.6 12.4 83 8.6 0.0 0.0 --- 0.00 30.145
03/07/2003 3:00 a 12.3 12.3 12.3 12.5 12.0 82 7.9 0.0 0.0 --- 0.00 30.162
03/07/2003 3:30 a 12.0 12.0 12.0 12.2 11.8 82 7.6 0.0 0.0 --- 0.00 30.159
03/07/2003 4:00 a 11.7 11.7 11.7 11.8 11.5 82 7.3 0.0 0.0 --- 0.00 30.173
03/07/2003 4:30 a 11.4 11.4 11.4 11.7 11.3 82 7.0 0.0 0.0 --- 0.00 30.184
03/07/2003 5:00 a 11.0 11.0 11.0 11.4 10.8 81 6.3 0.0 0.0 --- 0.00 30.200
03/07/2003 5:30 a 10.7 10.7 10.7 11.0 10.4 80 5.8 0.0 0.0 --- 0.00 30.203
03/07/2003 6:00 a 10.2 10.2 10.2 10.5 9.8 80 5.3 0.0 0.0 --- 0.00 30.221
03/07/2003 6:30 a 9.2 9.2 9.2 9.8 8.7 79 4.0 0.0 0.0 --- 0.00 30.250
03/07/2003 7:00 a 9.5 9.5 9.5 12.3 8.7 81 4.9 0.0 0.0 --- 0.00 30.246
03/07/2003 7:30 a 17.6 17.6 17.6 23.0 12.3 84 13.6 0.0 0.0 --- 0.00 30.254
03/07/2003 8:00 a 27.2 27.2 27.2 29.5 23.1 85 23.3 0.0 0.0 --- 0.00 30.262
03/07/2003 8:30 a 27.3 27.3 27.3 28.5 25.5 84 23.1 0.0 0.0 --- 0.00 30.253
03/07/2003 9:00 a 28.8 28.8 28.8 31.2 27.2 84 24.6 0.0 0.0 --- 0.00 30.250
03/07/2003 9:30 a 30.5 30.5 30.5 31.9 28.0 86 26.8 0.0 3.0 N 0.00 30.248
03/07/2003 10:00 a 29.7 29.7 29.7 30.5 28.5 86 26.0 0.0 3.0 N 0.02 30.244
03/07/2003 10:30 a 29.5 29.5 29.5 30.6 28.2 86 25.8 1.0 4.0 N 0.02 30.247
03/07/2003 11:00 a 29.9 29.9 29.9 30.9 28.3 86 26.2 1.0 3.0 N 0.01 30.236
03/07/2003 11:30 a 30.7 30.7 30.7 31.5 29.6 86 27.0 1.0 4.0 NNW 0.01 30.227
03/07/2003 12:00 p 31.3 31.3 31.3 33.4 30.3 85 27.3 1.0 3.0 N 0.02 30.214
03/07/2003 12:30 p 34.1 34.1 34.1 35.1 33.1 83 29.5 1.0 4.0 N 0.02 30.201
03/07/2003 1:00 p 33.2 33.2 33.2 34.8 31.4 86 29.5 1.0 3.0 N 0.02 30.199
03/07/2003 1:30 p 31.3 31.3 31.3 31.6 30.9 87 27.9 1.0 5.0 N 0.00 30.194
03/07/2003 2:00 p 31.1 31.1 31.1 31.4 30.8 88 28.0 1.0 4.0 N 0.01 30.183
03/07/2003 2:30 p 31.4 31.4 31.4 31.6 31.1 87 28.0 1.0 4.0 SE 0.00 30.179
03/07/2003 3:00 p 31.9 31.9 31.9 32.5 31.4 87 28.5 1.0 3.0 NNE 0.00 30.157
03/07/2003 3:30 p 31.7 31.7 31.7 32.3 30.8 87 28.3 0.0 3.0 ESE 0.01 30.138
03/07/2003 4:00 p 30.8 30.8 30.8 31.1 30.5 87 27.4 0.0 4.0 SSE 0.00 30.120
03/07/2003 4:30 p 30.0 30.0 30.0 30.7 29.5 87 26.6 0.0 4.0 SSE 0.00 30.110
03/07/2003 5:00 p 30.1 30.1 30.1 30.5 29.6 88 27.0 0.0 3.0 NNE 0.00 30.091
03/07/2003 5:30 p 29.2 29.2 29.2 29.6 28.9 89 26.4 0.0 2.0 NNE 0.00 30.091
03/07/2003 6:00 p 28.6 28.6 28.6 28.9 28.4 89 25.8 0.0 3.0 NNE 0.00 30.087
03/07/2003 6:30 p 28.4 28.4 28.4 28.5 28.2 89 25.6 0.0 3.0 NNE 0.00 30.089
03/07/2003 7:00 p 28.1 28.1 28.1 28.2 28.0 89 25.3 0.0 3.0 NNE 0.00 30.082
03/07/2003 7:30 p 28.1 28.1 28.1 28.1 28.0 89 25.3 0.0 1.0 --- 0.00 30.079
03/07/2003 8:00 p 28.0 28.0 28.0 28.1 28.0 90 25.5 0.0 0.0 --- 0.00 30.075
03/07/2003 8:30 p 28.2 28.2 28.2 28.3 28.1 90 25.6 0.0 0.0 --- 0.00 30.082
03/07/2003 9:00 p 28.5 28.5 28.5 28.5 28.3 90 25.9 0.0 1.0 NNE 0.00 30.072
03/07/2003 9:30 p 28.6 28.6 28.6 28.6 28.5 90 26.0 0.0 1.0 --- 0.00 30.063
03/07/2003 10:00 p 28.7 28.7 28.7 28.8 28.5 90 26.1 0.0 0.0 --- 0.00 30.069
03/07/2003 10:30 p 28.7 28.7 28.7 28.8 28.6 90 26.1 0.0 0.0 --- 0.00 30.048
03/07/2003 11:00 p 28.5 28.5 28.5 28.6 28.5 90 25.9 0.0 0.0 --- 0.00 30.037
03/07/2003 11:30 p 28.5 28.5 28.5 28.7 28.4 90 25.9 0.0 2.0 NNE 0.00 30.026
03/08/2003 12:00 a 28.5 28.5 28.5 28.7 28.3 90 25.9 0.0 0.0 --- 0.00 30.018
03/08/2003 12:30 a 27.8 27.8 27.8 28.4 27.5 91 25.5 0.0 2.0 NNE 0.00 30.015
03/08/2003 1:00 a 27.2 27.2 27.2 27.5 27.0 90 24.7 0.0 1.0 --- 0.00 30.013
03/08/2003 1:30 a 25.7 25.7 25.7 27.0 24.3 90 23.2 0.0 0.0 --- 0.00 29.998
03/08/2003 2:00 a 24.6 24.6 24.6 25.4 24.0 91 22.4 0.0 0.0 --- 0.00 29.992
03/08/2003 2:30 a 26.0 26.0 26.0 26.6 25.4 92 24.0 0.0 0.0 --- 0.00 29.991
03/08/2003 3:00 a 26.9 26.9 26.9 27.1 26.6 91 24.6 0.0 0.0 --- 0.00 30.000
03/08/2003 3:30 a 27.3 27.3 27.3 27.5 27.1 91 25.0 0.0 0.0 --- 0.00 30.007
03/08/2003 4:00 a 27.5 27.5 27.5 27.6 27.4 91 25.2 0.0 0.0 --- 0.00 30.018
03/08/2003 4:30 a 26.1 26.1 26.1 27.4 25.0 90 23.6 0.0 0.0 --- 0.00 30.026
03/08/2003 5:00 a 24.2 24.2 24.2 25.0 23.5 90 21.7 0.0 0.0 --- 0.00 30.023
03/08/2003 5:30 a 23.2 23.2 23.2 23.5 23.0 90 20.7 0.0 0.0 --- 0.00 30.024
03/08/2003 6:00 a 22.9 22.9 22.9 23.3 22.3 89 20.1 0.0 0.0 --- 0.00 30.026
03/08/2003 6:30 a 22.3 22.3 22.3 22.4 22.1 89 19.6 0.0 0.0 --- 0.00 30.030
03/08/2003 7:00 a 22.9 22.9 22.9 24.6 22.1 89 20.1 0.0 0.0 --- 0.00 30.044
03/08/2003 7:30 a 28.9 28.9 28.9 33.2 24.6 87 25.5 0.0 0.0 --- 0.00 30.048
03/08/2003 8:00 a 36.5 36.5 36.5 37.7 33.2 80 30.9 0.0 0.0 --- 0.00 30.048
03/08/2003 8:30 a 38.5 38.5 38.5 40.0 37.3 76 31.6 0.0 2.0 NNE 0.01 30.044
03/08/2003 9:00 a 41.1 41.1 41.1 44.1 38.6 76 34.1 0.0 3.0 ENE 0.00 30.055
03/08/2003 9:30 a 45.0 45.0 45.0 47.6 42.9 77 38.2 0.0 2.0 ENE 0.02 30.053
03/08/2003 10:00 a 47.2 47.2 47.2 48.7 44.7 72 38.6 0.0 3.0 E 0.02 30.042
03/08/2003 10:30 a 46.0 46.0 46.0 47.3 44.6 77 39.2 1.0 4.0 SSE 0.02 30.034
03/08/2003 11:00 a 48.0 48.0 48.0 50.4 44.8 75 40.5 0.0 5.0 SSE 0.01 30.022
03/08/2003 11:30 a 48.8 48.8 48.8 49.7 47.6 73 40.5 0.0 4.0 S 0.02 30.007
03/08/2003 12:00 p 50.6 50.6 50.6 54.6 48.6 67 40.1 0.0 3.0 SSW 0.02 30.005
03/08/2003 12:30 p 55.8 55.8 55.8 56.7 54.6 62 43.0 0.0 3.0 N 0.02 29.992
03/08/2003 1:00 p 51.6 51.6 51.6 55.9 46.9 73 43.2 0.0 4.0 NNE 0.02 29.974
03/08/2003 1:30 p 46.6 46.6 46.6 46.9 46.3 72 38.1 1.0 3.0 NNE 0.01 29.948
03/08/2003 2:00 p 46.7 46.7 46.7 47.0 46.5 71 37.8 0.0 3.0 N 0.00 29.942
03/08/2003 2:30 p 46.4 46.4 46.4 46.6 46.1 71 37.5 1.0 4.0 NNE 0.01 29.944
03/08/2003 3:00 p 46.6 46.6 46.6 47.0 46.1 66 35.9 0.0 3.0 SSE 0.00 29.933
03/08/2003 3:30 p 47.1 47.1 47.1 47.4 46.9 68 37.1 0.0 3.0 NNE 0.00 29.934
03/08/2003 4:00 p 46.4 46.4 46.4 47.2 45.7 70 37.2 0.0 3.0 NNE 0.01 29.915
03/08/2003 4:30 p 45.3 45.3 45.3 46.0 44.3 69 35.7 0.0 3.0 NE 0.00 29.897
03/08/2003 5:00 p 44.3 44.3 44.3 44.5 43.8 69 34.8 0.0 3.0 NE 0.00 29.887
03/08/2003 5:30 p 42.4 42.4 42.4 43.7 40.9 73 34.4 0.0 1.0 NE 0.00 29.885
03/08/2003 6:00 p 40.4 40.4 40.4 40.9 39.5 76 33.4 0.0 3.0 N 0.00 29.873
03/08/2003 6:30 p 39.3 39.3 39.3 39.5 39.2 75 32.1 1.0 4.0 N 0.00 29.869
03/08/2003 7:00 p 38.6 38.6 38.6 39.3 38.0 80 33.0 0.0 5.0 NE 0.00 29.865
03/08/2003 7:30 p 37.3 37.3 37.3 38.0 37.0 80 31.7 0.0 3.0 NE 0.00 29.847
03/08/2003 8:00 p 36.6 36.6 36.6 37.0 36.3 81 31.3 0.0 5.0 NE 0.00 29.828
03/08/2003 8:30 p 36.6 36.6 36.6 36.9 36.4 82 31.6 0.0 3.0 NE 0.00 29.812
03/08/2003 9:00 p 35.6 35.6 35.6 36.4 34.7 84 31.3 0.0 3.0 NE 0.00 29.800
03/08/2003 9:30 p 34.4 34.4 34.4 34.7 34.2 84 30.1 0.0 1.0 NE 0.00 29.780
03/08/2003 10:00 p 34.8 34.8 34.8 35.1 34.5 84 30.5 0.0 1.0 NE 0.00 29.755
03/08/2003 10:30 p 34.7 34.7 34.7 34.9 34.5 84 30.4 0.0 2.0 NE 0.00 29.729
03/08/2003 11:00 p 34.3 34.3 34.3 34.7 33.8 85 30.3 0.0 2.0 NNE 0.00 29.713
03/08/2003 11:30 p 33.9 33.9 33.9 34.4 33.4 85 29.9 0.0 1.0 NE 0.00 29.677
03/09/2003 12:00 a 34.3 34.3 34.3 34.4 34.0 85 30.3 0.0 1.0 ENE 0.00 29.649
03/09/2003 12:30 a 34.0 34.0 34.0 34.4 33.7 87 30.5 0.0 2.0 ENE 0.00 29.641
03/09/2003 1:00 a 34.3 34.3 34.3 35.4 33.8 86 30.6 0.0 1.0 --- 0.00 29.616
03/09/2003 1:30 a 35.4 35.4 35.4 35.6 35.1 86 31.6 0.0 1.0 ENE 0.00 29.596
03/09/2003 2:00 a 34.8 34.8 34.8 35.1 34.6 87 31.3 0.0 0.0 --- 0.00 29.577
03/09/2003 2:30 a 35.0 35.0 35.0 35.2 34.6 87 31.5 0.0 0.0 --- 0.00 29.546
03/09/2003 3:00 a 33.8 33.8 33.8 34.6 32.8 90 31.2 0.0 0.0 --- 0.00 29.531
03/09/2003 3:30 a 32.2 32.2 32.2 32.9 31.6 92 30.1 0.0 0.0 --- 0.00 29.520
03/09/2003 4:00 a 31.2 31.2 31.2 31.7 30.9 93 29.4 0.0 0.0 --- 0.00 29.531
03/09/2003 4:30 a 31.2 31.2 31.2 31.6 30.7 92 29.2 0.0 0.0 --- 0.00 29.533
03/09/2003 5:00 a 30.4 30.4 30.4 30.7 30.1 93 28.6 0.0 0.0 --- 0.00 29.527
03/09/2003 5:30 a 30.6 30.6 30.6 32.0 30.1 94 29.1 0.0 0.0 --- 0.00 29.524
03/09/2003 6:00 a 33.0 33.0 33.0 33.6 32.0 94 31.5 0.0 0.0 --- 0.00 29.531
03/09/2003 6:30 a 35.9 35.9 35.9 37.9 33.7 93 34.1 0.0 2.0 ENE 0.00 29.525
03/09/2003 7:00 a 38.0 38.0 38.0 38.9 37.7 89 35.1 0.0 2.0 W 0.00 29.538
03/09/2003 7:30 a 41.5 41.5 41.5 44.9 38.9 77 34.8 0.0 3.0 SE 0.00 29.545
03/09/2003 8:00 a 48.7 48.7 48.7 52.2 44.9 64 37.1 1.0 5.0 S 0.00 29.555
03/09/2003 8:30 a 53.0 53.0 53.0 55.2 52.0 55 37.3 1.0 9.0 SSE 0.00 29.556
03/09/2003 9:00 a 56.7 56.7 56.7 59.2 54.3 49 37.8 2.0 7.0 SSE 0.00 29.567
03/09/2003 9:30 a 59.2 59.2 59.2 60.7 57.7 43 36.7 2.0 10.0 SSE 0.00 29.573
03/09/2003 10:00 a 57.9 57.9 57.9 59.4 56.5 43 35.6 3.0 11.0 SSE 0.00 29.582
03/09/2003 10:30 a 56.2 56.2 56.2 57.6 54.6 41 32.8 3.0 12.0 SSE 0.00 29.590
03/09/2003 11:00 a 55.5 55.5 55.5 56.9 53.6 41 32.2 3.0 10.0 SSE 0.00 29.589
03/09/2003 11:30 a 55.0 55.0 55.0 56.4 53.3 39 30.5 3.0 9.0 SSE 0.00 29.586
03/09/2003 12:00 p 55.4 55.4 55.4 57.6 54.1 31 25.3 3.0 12.0 SSE 0.00 29.591
03/09/2003 12:30 p 57.2 57.2 57.2 58.0 56.6 30 26.1 4.0 12.0 SSE 0.00 29.595
03/09/2003 1:00 p 53.5 53.5 53.5 57.2 49.6 38 28.5 3.0 13.0 SSE 0.00 29.593
03/09/2003 1:30 p 49.1 49.1 49.1 49.6 48.6 38 24.6 2.0 9.0 SSE 0.00 29.586
03/09/2003 2:00 p 48.1 48.1 48.1 48.6 47.8 39 24.3 3.0 10.0 SSE 0.00 29.603
03/09/2003 2:30 p 47.1 47.1 47.1 47.8 46.5 38 22.8 4.0 13.0 SSE 0.00 29.610
03/09/2003 3:00 p 45.7 45.7 45.7 46.5 44.1 40 22.8 4.0 14.0 SSE 0.00 29.632
03/09/2003 3:30 p 43.9 43.9 43.9 44.4 43.4 38 20.0 3.0 9.0 SSE 0.00 29.640
03/09/2003 4:00 p 43.2 43.2 43.2 44.2 42.4 38 19.3 3.0 12.0 SSE 0.00 29.649
03/09/2003 4:30 p 42.1 42.1 42.1 42.5 41.0 37 17.7 4.0 14.0 SSE 0.00 29.654
03/09/2003 5:00 p 39.9 39.9 39.9 41.0 39.2 40 17.6 4.0 12.0 SSE 0.00 29.666
03/09/2003 5:30 p 38.7 38.7 38.7 39.2 38.2 41 17.0 3.0 13.0 SSE 0.00 29.694
03/09/2003 6:00 p 37.7 37.7 37.7 38.3 36.8 47 19.3 2.0 7.0 SSE 0.00 29.719
03/09/2003 6:30 p 35.9 35.9 35.9 36.8 34.7 47 17.6 2.0 9.0 SSE 0.00 29.734
03/09/2003 7:00 p 33.7 33.7 33.7 34.7 32.5 50 17.1 1.0 8.0 SSE 0.00 29.757
03/09/2003 7:30 p 32.2 32.2 32.2 32.6 31.5 42 11.7 1.0 6.0 S 0.00 29.783
03/09/2003 8:00 p 30.7 30.7 30.7 31.5 29.8 42 10.3 2.0 7.0 SSE 0.00 29.795
03/09/2003 8:30 p 28.7 28.7 28.7 29.8 27.9 43 9.0 1.0 5.0 SSW 0.00 29.811
03/09/2003 9:00 p 27.3 27.3 27.3 27.9 26.9 41 6.7 1.0 5.0 SSW 0.00 29.829
03/09/2003 9:30 p 26.9 26.9 26.9 27.1 26.4 37 4.1 2.0 7.0 SSW 0.00 29.850
03/09/2003 10:00 p 25.8 25.8 25.8 26.4 25.5 36 2.5 2.0 6.0 SSE 0.00 29.854
03/09/2003 10:30 p 24.9 24.9 24.9 25.5 24.2 37 2.3 1.0 6.0 S 0.00 29.863
03/09/2003 11:00 p 24.0 24.0 24.0 24.2 23.8 39 2.6 1.0 7.0 SSW 0.00 29.868
03/09/2003 11:30 p 23.3 23.3 23.3 23.8 22.8 40 2.6 1.0 6.0 S 0.00 29.867
03/10/2003 12:00 a 22.3 22.3 22.3 22.8 21.9 39 1.1 1.0 5.0 SSE 0.00 29.859
03/10/2003 12:30 a 21.8 21.8 21.8 22.1 21.5 41 1.7 1.0 5.0 S 0.00 29.862
03/10/2003 1:00 a 21.8 21.8 21.8 22.0 21.6 39 0.7 2.0 7.0 SSE 0.00 29.866
03/10/2003 1:30 a 21.2 21.2 21.2 21.9 20.8 42 1.7 1.0 4.0 SSE 0.00 29.862
03/10/2003 2:00 a 20.7 20.7 20.7 20.8 20.6 40 0.2 1.0 6.0 SSE 0.00 29.862
03/10/2003 2:30 a 20.3 20.3 20.3 20.6 19.6 40 -0.2 1.0 4.0 SSE 0.00 29.855
03/10/2003 3:00 a 19.3 19.3 19.3 19.6 19.0 39 -1.6 1.0 4.0 SSE 0.00 29.852
03/10/2003 3:30 a 19.2 19.2 19.2 19.6 18.5 42 -0.1 1.0 5.0 SSE 0.00 29.859
03/10/2003 4:00 a 17.8 17.8 17.8 18.5 17.3 41 -1.9 0.0 6.0 SSE 0.00 29.877
03/10/2003 4:30 a 18.8 18.8 18.8 19.1 18.4 42 -0.5 2.0 7.0 SSE 0.00 29.893
03/10/2003 5:00 a 18.2 18.2 18.2 18.6 17.8 43 -0.5 1.0 5.0 S 0.00 29.915
03/10/2003 5:30 a 17.8 17.8 17.8 18.0 17.6 44 -0.4 1.0 5.0 SSE 0.00 29.934
03/10/2003 6:00 a 17.5 17.5 17.5 17.6 17.4 44 -0.7 1.0 5.0 SSE 0.00 29.940
03/10/2003 6:30 a 17.2 17.2 17.2 17.5 16.5 52 2.6 0.0 3.0 SSW 0.00 29.944
03/10/2003 7:00 a 16.8 16.8 16.8 18.3 16.4 49 1.0 0.0 0.0 --- 0.00 29.955
03/10/2003 7:30 a 22.4 22.4 22.4 26.6 18.3 34 -1.7 0.0 5.0 SSE 0.00 29.958
03/10/2003 8:00 a 30.2 30.2 30.2 33.0 26.6 29 1.8 1.0 4.0 SSE 0.00 29.967
03/10/2003 8:30 a 31.7 31.7 31.7 33.6 30.6 28 2.3 1.0 5.0 SSE 0.00 29.972
03/10/2003 9:00 a 30.0 30.0 30.0 32.4 28.0 31 3.0 2.0 6.0 S 0.00 29.972
03/10/2003 9:30 a 28.7 28.7 28.7 31.8 26.6 29 0.5 2.0 12.0 SSE 0.00 29.975
03/10/2003 10:00 a 32.4 32.4 32.4 34.7 30.1 28 2.9 3.0 12.0 SSE 0.00 29.974
03/10/2003 10:30 a 31.9 31.9 31.9 33.9 30.4 32 5.4 3.0 9.0 SSE 0.00 29.967
03/10/2003 11:00 a 30.2 30.2 30.2 31.6 28.4 33 4.6 3.0 10.0 SSE 0.00 29.970
03/10/2003 11:30 a 29.2 29.2 29.2 32.2 28.1 29 0.9 3.0 10.0 SSE 0.00 29.965
03/10/2003 12:00 p 30.7 30.7 30.7 32.4 28.7 27 0.7 3.0 9.0 SSE 0.00 29.969
03/10/2003 12:30 p 33.6 33.6 33.6 35.8 30.9 26 2.4 3.0 12.0 SSE 0.00 29.966
03/10/2003 1:00 p 30.6 30.6 30.6 32.6 29.8 27 0.6 3.0 10.0 SSE 0.00 29.957
03/10/2003 1:30 p 30.9 30.9 30.9 31.4 30.5 27 0.9 3.0 9.0 SSE 0.00 29.955
03/10/2003 2:00 p 30.6 30.6 30.6 31.3 30.0 29 2.1 3.0 13.0 SSE 0.00 29.954
03/10/2003 2:30 p 30.1 30.1 30.1 31.2 29.5 29 1.7 3.0 8.0 SSE 0.00 29.956
03/10/2003 3:00 p 29.4 29.4 29.4 29.8 29.0 27 -0.4 4.0 16.0 SSE 0.00 29.966
03/10/2003 3:30 p 29.3 29.3 29.3 29.6 29.0 29 1.0 2.0 9.0 SSE 0.00 29.963
03/10/2003 4:00 p 28.9 28.9 28.9 29.3 28.6 30 1.4 2.0 8.0 SSE 0.00 29.978
03/10/2003 4:30 p 28.1 28.1 28.1 28.7 27.5 30 0.7 2.0 8.0 SSE 0.00 29.983
03/10/2003 5:00 p 27.2 27.2 27.2 27.5 26.7 32 1.3 2.0 8.0 SSE 0.00 29.993
03/10/2003 5:30 p 26.3 26.3 26.3 26.7 25.7 34 1.8 1.0 6.0 SSE 0.00 30.010
03/10/2003 6:00 p 25.4 25.4 25.4 25.7 25.1 34 1.0 2.0 7.0 SSE 0.00 30.021
03/10/2003 6:30 p 24.3 24.3 24.3 25.1 23.8 37 1.8 1.0 4.0 SSE 0.00 30.028
03/10/2003 7:00 p 23.5 23.5 23.5 24.1 22.5 42 3.8 0.0 4.0 SSE 0.00 30.041
03/10/2003 7:30 p 22.5 22.5 22.5 22.7 22.2 44 3.9 0.0 2.0 SSE 0.00 30.051
03/10/2003 8:00 p 21.9 21.9 21.9 22.2 21.6 44 3.3 0.0 2.0 SSE 0.00 30.058
03/10/2003 8:30 p 21.7 21.7 21.7 22.0 21.4 46 4.1 0.0 1.0 SSE 0.00 30.064
03/10/2003 9:00 p 21.2 21.2 21.2 21.6 20.9 48 4.6 0.0 0.0 --- 0.00 30.065
03/10/2003 9:30 p 20.3 20.3 20.3 21.2 19.6 53 5.9 0.0 0.0 --- 0.00 30.075
03/10/2003 10:00 p 19.0 19.0 19.0 19.6 18.2 59 7.0 0.0 0.0 --- 0.00 30.079
03/10/2003 10:30 p 18.1 18.1 18.1 18.3 17.7 61 6.9 0.0 0.0 --- 0.00 30.086
03/10/2003 11:00 p 17.8 17.8 17.8 18.2 17.4 60 6.3 0.0 0.0 --- 0.00 30.084
03/10/2003 11:30 p 18.2 18.2 18.2 18.4 18.0 59 6.3 0.0 0.0 --- 0.00 30.084
03/11/2003 12:00 a 18.4 18.4 18.4 18.6 17.8 59 6.5 0.0 0.0 --- 0.00 30.085
03/11/2003 12:30 a 18.0 18.0 18.0 18.3 17.6 60 6.5 0.0 0.0 --- 0.00 30.088
03/11/2003 1:00 a 17.3 17.3 17.3 18.2 16.2 66 7.9 0.0 0.0 --- 0.00 30.105
03/11/2003 1:30 a 16.0 16.0 16.0 16.2 15.8 71 8.3 0.0 0.0 --- 0.00 30.105
03/11/2003 2:00 a 16.1 16.1 16.1 16.4 15.5 71 8.4 0.0 0.0 --- 0.00 30.101
03/11/2003 2:30 a 15.1 15.1 15.1 15.5 14.8 75 8.6 0.0 0.0 --- 0.00 30.101
03/11/2003 3:00 a 14.3 14.3 14.3 14.8 14.1 77 8.4 0.0 0.0 --- 0.00 30.097
03/11/2003 3:30 a 13.9 13.9 13.9 14.2 13.6 77 8.0 0.0 0.0 --- 0.00 30.103
03/11/2003 4:00 a 13.7 13.7 13.7 14.1 13.1 79 8.4 0.0 0.0 --- 0.00 30.114
03/11/2003 4:30 a 13.2 13.2 13.2 13.3 13.0 80 8.2 0.0 0.0 --- 0.00 30.121
03/11/2003 5:00 a 13.1 13.1 13.1 13.4 12.8 80 8.1 0.0 0.0 --- 0.00 30.131
03/11/2003 5:30 a 12.8 12.8 12.8 13.0 12.7 82 8.4 0.0 0.0 --- 0.00 30.133
03/11/2003 6:00 a 12.7 12.7 12.7 13.0 12.4 83 8.5 0.0 0.0 --- 0.00 30.133
03/11/2003 6:30 a 12.6 12.6 12.6 13.0 12.4 82 8.2 0.0 0.0 --- 0.00 30.139
03/11/2003 7:00 a 14.0 14.0 14.0 16.1 13.0 81 9.3 0.0 0.0 --- 0.00 30.146
03/11/2003 7:30 a 20.8 20.8 20.8 27.2 16.1 57 8.0 0.0 0.0 --- 0.00 30.148
03/11/2003 8:00 a 32.4 32.4 32.4 34.5 27.3 39 10.2 0.0 2.0 SSE 0.00 30.142
03/11/2003 8:30 a 35.2 35.2 35.2 35.9 34.4 35 10.3 0.0 3.0 SSE 0.00 30.148
03/11/2003 9:00 a 38.8 38.8 38.8 42.3 35.7 26 6.9 0.0 3.0 SSE 0.00 30.146
03/11/2003 9:30 a 42.0 42.0 42.0 43.4 40.4 26 9.6 1.0 3.0 S 0.00 30.137
03/11/2003 10:00 a 39.1 39.1 39.1 42.1 37.8 29 9.5 1.0 4.0 S 0.00 30.136
03/11/2003 10:30 a 39.0 39.0 39.0 41.0 37.2 29 9.5 1.0 4.0 S 0.00 30.127
03/11/2003 11:00 a 39.2 39.2 39.2 40.6 38.4 28 8.8 1.0 5.0 SSE 0.00 30.112
03/11/2003 11:30 a 43.8 43.8 43.8 45.2 40.3 27 12.0 1.0 5.0 S 0.00 30.100
03/11/2003 12:00 p 44.6 44.6 44.6 47.3 43.6 25 11.0 1.0 4.0 S 0.00 30.086
03/11/2003 12:30 p 47.5 47.5 47.5 49.1 45.1 27 15.2 1.0 5.0 SSE 0.00 30.065
03/11/2003 1:00 p 42.6 42.6 42.6 45.1 41.5 30 13.4 1.0 4.0 SSE 0.00 30.042
03/11/2003 1:30 p 41.9 41.9 41.9 42.5 41.5 30 12.7 1.0 6.0 S 0.00 30.027
03/11/2003 2:00 p 40.5 40.5 40.5 41.5 39.6 33 13.7 1.0 5.0 SSE 0.00 30.015
03/11/2003 2:30 p 38.8 38.8 38.8 39.6 38.1 38 15.4 1.0 4.0 NNE 0.00 29.996
03/11/2003 3:00 p 38.2 38.2 38.2 38.5 37.4 42 17.1 0.0 4.0 NE 0.00 29.996
03/11/2003 3:30 p 37.3 37.3 37.3 37.9 37.0 47 18.9 0.0 3.0 ESE 0.00 29.988
03/11/2003 4:00 p 38.3 38.3 38.3 38.6 37.9 47 19.9 0.0 3.0 N 0.00 29.972
03/11/2003 4:30 p 37.9 37.9 37.9 38.6 37.2 52 21.9 0.0 4.0 S 0.00 29.976
03/11/2003 5:00 p 36.8 36.8 36.8 37.2 36.7 53 21.3 0.0 3.0 S 0.00 29.980
03/11/2003 5:30 p 36.4 36.4 36.4 36.7 36.0 62 24.6 0.0 3.0 S 0.00 29.980
03/11/2003 6:00 p 35.6 35.6 35.6 36.0 35.0 65 25.0 0.0 4.0 S 0.00 29.988
03/11/2003 6:30 p 33.8 33.8 33.8 35.0 32.5 72 25.7 0.0 2.0 NNE 0.00 29.997
03/11/2003 7:00 p 33.3 33.3 33.3 34.2 32.5 71 24.9 0.0 2.0 SSE 0.00 30.002
03/11/2003 7:30 p 34.2 34.2 34.2 34.6 33.4 73 26.5 0.0 2.0 SSE 0.00 29.998
03/11/2003 8:00 p 32.5 32.5 32.5 33.4 31.5 79 26.7 0.0 0.0 --- 0.00 29.999
03/11/2003 8:30 p 30.8 30.8 30.8 31.6 30.0 82 26.0 0.0 0.0 --- 0.00 29.997
03/11/2003 9:00 p 29.0 29.0 29.0 30.0 28.2 84 24.8 0.0 0.0 --- 0.00 30.001
03/11/2003 9:30 p 27.9 27.9 27.9 28.2 27.8 86 24.3 0.0 0.0 --- 0.00 30.001
03/11/2003 10:00 p 28.0 28.0 28.0 28.3 27.8 87 24.6 0.0 0.0 --- 0.00 30.005
03/11/2003 10:30 p 28.0 28.0 28.0 28.2 27.7 88 24.9 0.0 0.0 --- 0.00 30.000
03/11/2003 11:00 p 27.7 27.7 27.7 27.9 27.6 89 24.9 0.0 0.0 --- 0.00 29.993
03/11/2003 11:30 p 28.2 28.2 28.2 29.0 27.5 90 25.6 0.0 0.0 --- 0.00 29.989
03/12/2003 12:00 a 29.6 29.6 29.6 30.9 29.0 89 26.8 0.0 1.0 --- 0.00 29.985
03/12/2003 12:30 a 31.0 31.0 31.0 31.2 30.9 88 27.9 0.0 1.0 --- 0.00 29.986
03/12/2003 1:00 a 30.3 30.3 30.3 31.0 29.9 90 27.7 0.0 1.0 --- 0.00 29.974
03/12/2003 1:30 a 30.9 30.9 30.9 31.6 30.0 87 27.5 0.0 2.0 SSW 0.00 29.975
03/12/2003 2:00 a 31.7 31.7 31.7 31.8 31.6 87 28.3 0.0 1.0 SSW 0.00 29.956
03/12/2003 2:30 a 31.7 31.7 31.7 31.9 31.7 87 28.3 0.0 1.0 SSW 0.00 29.944
03/12/2003 3:00 a 31.9 31.9 31.9 32.0 31.8 87 28.5 0.0 1.0 SSW 0.00 29.926
03/12/2003 3:30 a 32.1 32.1 32.1 32.2 32.0 87 28.7 0.0 3.0 S 0.00 29.933
03/12/2003 4:00 a 32.3 32.3 32.3 32.3 32.1 87 28.9 0.0 2.0 S 0.00 29.926
03/12/2003 4:30 a 32.4 32.4 32.4 32.4 32.3 87 29.0 0.0 4.0 S 0.00 29.931
03/12/2003 5:00 a 32.3 32.3 32.3 32.4 32.2 87 28.9 0.0 2.0 SSE 0.00 29.935
03/12/2003 5:30 a 32.2 32.2 32.2 32.3 32.1 87 28.8 0.0 2.0 S 0.00 29.937
03/12/2003 6:00 a 32.3 32.3 32.3 32.4 32.1 87 28.9 0.0 3.0 S 0.00 29.926
03/12/2003 6:30 a 32.2 32.2 32.2 32.3 32.1 87 28.8 0.0 2.0 S 0.00 29.924
03/12/2003 7:00 a 32.5 32.5 32.5 32.7 32.2 86 28.8 0.0 1.0 S 0.00 29.945
03/12/2003 7:30 a 33.1 33.1 33.1 33.4 32.7 85 29.1 0.0 3.0 S 0.00 29.944
03/12/2003 8:00 a 33.8 33.8 33.8 34.4 33.4 82 28.9 0.0 3.0 S 0.00 29.933
03/12/2003 8:30 a 34.9 34.9 34.9 35.2 34.4 80 29.4 0.0 2.0 S 0.00 29.939
03/12/2003 9:00 a 35.1 35.1 35.1 35.7 34.8 79 29.3 0.0 4.0 S 0.00 29.939
03/12/2003 9:30 a 36.2 36.2 36.2 37.8 35.7 75 29.1 0.0 3.0 SSE 0.00 29.934
03/12/2003 10:00 a 40.4 40.4 40.4 44.1 37.8 63 28.8 1.0 5.0 S 0.00 29.917
03/12/2003 10:30 a 46.2 46.2 46.2 47.7 44.1 57 31.8 1.0 5.0 S 0.00 29.895
03/12/2003 11:00 a 48.8 48.8 48.8 50.0 47.0 56 33.8 0.0 4.0 S 0.00 29.895
03/12/2003 11:30 a 47.7 47.7 47.7 49.0 46.6 53 31.4 0.0 6.0 S 0.00 29.893
03/12/2003 12:00 p 50.4 50.4 50.4 51.8 49.0 50 32.5 0.0 4.0 SSE 0.00 29.898
03/12/2003 12:30 p 50.9 50.9 50.9 51.5 50.3 50 32.9 1.0 5.0 SSE 0.00 29.889
03/12/2003 1:00 p 50.2 50.2 50.2 51.2 49.9 53 33.7 0.0 5.0 SSE 0.00 29.853
03/12/2003 1:30 p 50.4 50.4 50.4 50.7 49.8 53 33.9 0.0 3.0 SSE 0.00 29.849
03/12/2003 2:00 p 50.4 50.4 50.4 51.3 50.1 53 33.9 0.0 3.0 SSE 0.00 29.844
03/12/2003 2:30 p 50.7 50.7 50.7 51.3 50.1 55 35.1 0.0 3.0 ESE 0.00 29.840
03/12/2003 3:00 p 50.3 50.3 50.3 50.6 49.9 66 39.4 0.0 2.0 E 0.00 29.824
03/12/2003 3:30 p 49.9 49.9 49.9 50.3 49.5 54 33.9 0.0 3.0 SSE 0.00 29.829
03/12/2003 4:00 p 49.8 49.8 49.8 50.2 49.4 55 34.3 0.0 3.0 S 0.00 29.838
03/12/2003 4:30 p 49.2 49.2 49.2 49.4 48.7 56 34.2 0.0 3.0 S 0.00 29.830
03/12/2003 5:00 p 48.5 48.5 48.5 48.7 48.2 55 33.1 0.0 3.0 S 0.00 29.843
03/12/2003 5:30 p 48.0 48.0 48.0 48.5 47.3 57 33.5 0.0 2.0 S 0.00 29.852
03/12/2003 6:00 p 45.4 45.4 45.4 47.3 44.2 62 33.2 0.0 0.0 --- 0.00 29.862
03/12/2003 6:30 p 42.5 42.5 42.5 44.2 41.3 67 32.3 0.0 0.0 --- 0.00 29.865
03/12/2003 7:00 p 40.9 40.9 40.9 41.3 40.6 68 31.2 0.0 0.0 --- 0.00 29.884
03/12/2003 7:30 p 40.7 40.7 40.7 41.1 40.4 72 32.4 0.0 0.0 --- 0.00 29.890
03/12/2003 8:00 p 40.9 40.9 40.9 41.1 40.8 69 31.5 0.0 0.0 --- 0.00 29.892
03/12/2003 8:30 p 40.9 40.9 40.9 41.1 40.5 70 31.9 0.0 0.0 --- 0.00 29.888
03/12/2003 9:00 p 40.4 40.4 40.4 40.5 40.2 71 31.8 0.0 0.0 --- 0.00 29.895
03/12/2003 9:30 p 40.5 40.5 40.5 40.6 40.2 71 31.9 0.0 0.0 --- 0.00 29.899
03/12/2003 10:00 p 39.7 39.7 39.7 40.4 38.8 76 32.8 0.0 0.0 --- 0.00 29.904
03/12/2003 10:30 p 37.6 37.6 37.6 38.8 36.8 80 32.0 0.0 0.0 --- 0.00 29.903
03/12/2003 11:00 p 36.5 36.5 36.5 37.3 35.8 81 31.2 0.0 0.0 --- 0.00 29.895
03/12/2003 11:30 p 35.8 35.8 35.8 36.8 35.2 80 30.2 0.0 0.0 --- 0.00 29.891
03/13/2003 12:00 a 37.5 37.5 37.5 38.4 36.8 78 31.3 0.0 0.0 --- 0.00 29.906
03/13/2003 12:30 a 37.9 37.9 37.9 38.5 37.1 81 32.6 0.0 2.0 S 0.00 29.893
03/13/2003 1:00 a 36.0 36.0 36.0 37.1 35.4 84 31.6 0.0 0.0 --- 0.00 29.887
03/13/2003 1:30 a 35.0 35.0 35.0 35.4 34.5 86 31.2 0.0 0.0 --- 0.00 29.887
03/13/2003 2:00 a 33.9 33.9 33.9 34.5 33.4 87 30.4 0.0 0.0 --- 0.00 29.888
03/13/2003 2:30 a 33.8 33.8 33.8 35.2 33.0 86 30.1 0.0 0.0 --- 0.00 29.892
03/13/2003 3:00 a 35.9 35.9 35.9 36.4 35.2 83 31.3 0.0 0.0 --- 0.00 29.893
03/13/2003 3:30 a 37.0 37.0 37.0 37.4 36.4 82 32.0 0.0 1.0 --- 0.00 29.898
03/13/2003 4:00 a 37.4 37.4 37.4 37.5 37.3 82 32.4 0.0 0.0 --- 0.00 29.898
03/13/2003 4:30 a 37.3 37.3 37.3 37.5 37.2 82 32.3 0.0 0.0 --- 0.00 29.913
03/13/2003 5:00 a 37.5 37.5 37.5 38.0 37.1 81 32.2 0.0 0.0 --- 0.00 29.941
03/13/2003 5:30 a 37.8 37.8 37.8 38.4 37.4 80 32.2 0.0 0.0 --- 0.00 29.949
03/13/2003 6:00 a 37.8 37.8 37.8 38.5 37.2 83 33.1 0.0 0.0 --- 0.00 29.924
03/13/2003 6:30 a 38.2 38.2 38.2 39.1 37.2 78 32.0 0.0 0.0 --- 0.00 29.947
03/13/2003 7:00 a 39.3 39.3 39.3 40.0 39.0 74 31.7 0.0 0.0 --- 0.00 29.942
03/13/2003 7:30 a 40.8 40.8 40.8 41.3 40.0 70 31.8 0.0 1.0 --- 0.00 29.951
03/13/2003 8:00 a 43.2 43.2 43.2 45.3 41.3 62 31.1 0.0 1.0 S 0.00 29.955
03/13/2003 8:30 a 46.9 46.9 46.9 48.4 45.3 58 32.9 1.0 4.0 NW 0.00 29.958
03/13/2003 9:00 a 48.7 48.7 48.7 52.0 45.5 51 31.4 1.0 4.0 NW 0.00 29.961
03/13/2003 9:30 a 46.8 46.8 46.8 49.4 45.9 57 32.4 1.0 3.0 NW 0.00 29.960
03/13/2003 10:00 a 46.5 46.5 46.5 47.1 46.2 56 31.7 1.0 4.0 NW 0.00 29.952
03/13/2003 10:30 a 48.4 48.4 48.4 49.4 47.1 53 32.1 1.0 4.0 NW 0.00 29.944
03/13/2003 11:00 a 49.7 49.7 49.7 50.5 49.3 51 32.3 1.0 5.0 NNW 0.00 29.923
03/13/2003 11:30 a 51.2 51.2 51.2 52.0 50.4 47 31.7 2.0 4.0 N 0.00 29.917
03/13/2003 12:00 p 50.9 50.9 50.9 51.6 49.9 51 33.4 1.0 5.0 N 0.00 29.923
03/13/2003 12:30 p 48.9 48.9 48.9 49.9 48.4 53 32.5 1.0 3.0 NNW 0.00 29.913
03/13/2003 1:00 p 48.3 48.3 48.3 48.7 47.9 51 31.0 1.0 4.0 NNW 0.00 29.886
03/13/2003 1:30 p 48.1 48.1 48.1 49.0 47.1 52 31.3 1.0 4.0 NW 0.00 29.876
03/13/2003 2:00 p 47.3 47.3 47.3 47.6 46.7 52 30.6 1.0 4.0 NNW 0.00 29.853
03/13/2003 2:30 p 44.7 44.7 44.7 46.7 42.5 62 32.5 2.0 7.0 N 0.00 29.842
03/13/2003 3:00 p 40.4 40.4 40.4 42.5 38.2 89 37.4 1.0 5.0 N 0.01 29.867
03/13/2003 3:30 p 37.2 37.2 37.2 38.2 35.8 93 35.4 0.0 2.0 ESE 0.09 29.859
03/13/2003 4:00 p 36.5 36.5 36.5 36.7 35.9 94 34.9 0.0 1.0 ENE 0.04 29.869
03/13/2003 4:30 p 35.6 35.6 35.6 36.6 34.8 94 34.0 0.0 2.0 ENE 0.07 29.864
03/13/2003 5:00 p 35.9 35.9 35.9 36.3 35.2 95 34.6 0.0 3.0 N 0.03 29.852
03/13/2003 5:30 p 36.0 36.0 36.0 36.3 35.7 94 34.4 0.0 4.0 NNW 0.00 29.861
03/13/2003 6:00 p 35.0 35.0 35.0 35.7 34.5 94 33.5 0.0 2.0 W 0.01 29.876
03/13/2003 6:30 p 34.4 34.4 34.4 34.6 34.2 94 32.9 0.0 2.0 WSW 0.00 29.880
03/13/2003 7:00 p 34.0 34.0 34.0 34.2 33.7 95 32.7 0.0 2.0 W 0.00 29.893
03/13/2003 7:30 p 33.6 33.6 33.6 33.7 33.5 95 32.3 0.0 2.0 SW 0.01 29.909
03/13/2003 8:00 p 33.5 33.5 33.5 33.5 33.5 94 32.0 0.0 2.0 SW 0.00 29.931
03/13/2003 8:30 p 33.7 33.7 33.7 33.8 33.5 94 32.2 0.0 3.0 WSW 0.00 29.946
03/13/2003 9:00 p 33.5 33.5 33.5 33.7 33.4 95 32.2 0.0 3.0 SSW 0.00 29.950
03/13/2003 9:30 p 33.1 33.1 33.1 33.4 32.5 94 31.6 0.0 3.0 W 0.00 29.968
03/13/2003 10:00 p 32.0 32.0 32.0 32.5 31.2 94 30.5 0.0 2.0 SSW 0.00 29.967
03/13/2003 10:30 p 30.7 30.7 30.7 31.1 30.5 94 29.2 0.0 3.0 SSW 0.00 29.982
03/13/2003 11:00 p 30.5 30.5 30.5 30.8 29.7 94 29.0 0.0 2.0 SSW 0.00 29.979
03/13/2003 11:30 p 28.9 28.9 28.9 29.6 28.6 93 27.1 0.0 2.0 SW 0.00 29.996
03/14/2003 12:00 a 28.9 28.9 28.9 29.4 28.5 93 27.1 0.0 5.0 S 0.00 30.012
03/14/2003 12:30 a 29.5 29.5 29.5 29.8 29.2 93 27.7 0.0 4.0 S 0.00 30.026
03/14/2003 1:00 a 28.6 28.6 28.6 29.2 28.1 92 26.6 0.0 3.0 SW 0.00 30.038
03/14/2003 1:30 a 27.6 27.6 27.6 28.1 26.8 91 25.3 1.0 5.0 WSW 0.00 30.051
03/14/2003 2:00 a 26.9 26.9 26.9 28.4 26.0 84 22.7 1.0 6.0 SSW 0.00 30.069
03/14/2003 2:30 a 25.4 25.4 25.4 26.0 25.0 78 19.5 1.0 5.0 WSW 0.00 30.083
03/14/2003 3:00 a 24.7 24.7 24.7 25.0 24.1 77 18.5 1.0 5.0 WSW 0.00 30.085
03/14/2003 3:30 a 24.5 24.5 24.5 24.7 24.1 76 18.0 1.0 4.0 WSW 0.00 30.104
03/14/2003 4:00 a 24.1 24.1 24.1 24.5 23.7 72 16.4 1.0 4.0 S 0.00 30.138
03/14/2003 4:30 a 23.1 23.1 23.1 23.7 22.9 71 15.1 0.0 4.0 W 0.00 30.153
03/14/2003 5:00 a 22.7 22.7 22.7 23.0 22.2 70 14.4 0.0 3.0 S 0.00 30.162
03/14/2003 5:30 a 21.8 21.8 21.8 22.3 21.3 67 12.5 0.0 2.0 WSW 0.00 30.187
03/14/2003 6:00 a 21.1 21.1 21.1 21.5 20.7 69 12.5 0.0 4.0 WSW 0.00 30.204
03/14/2003 6:30 a 21.1 21.1 21.1 21.5 20.8 65 11.2 0.0 2.0 WSW 0.00 30.232
03/14/2003 7:00 a 21.8 21.8 21.8 22.5 21.5 65 11.9 0.0 3.0 WSW 0.00 30.242
03/14/2003 7:30 a 24.9 24.9 24.9 29.0 22.5 56 11.4 0.0 3.0 WSW 0.00 30.255
03/14/2003 8:00 a 31.7 31.7 31.7 33.4 28.8 56 17.8 1.0 3.0 WSW 0.00 30.259
03/14/2003 8:30 a 32.5 32.5 32.5 34.2 31.0 53 17.3 1.0 5.0 W 0.00 30.265
03/14/2003 9:00 a 36.5 36.5 36.5 39.6 34.3 48 18.7 0.0 3.0 NNW 0.00 30.266
03/14/2003 9:30 a 39.4 39.4 39.4 40.5 37.8 47 20.9 1.0 4.0 SSE 0.00 30.259
03/14/2003 10:00 a 36.0 36.0 36.0 39.5 34.8 42 15.1 1.0 6.0 SSE 0.00 30.252
03/14/2003 10:30 a 35.6 35.6 35.6 37.2 34.5 41 14.2 2.0 7.0 SSE 0.00 30.255
03/14/2003 11:00 a 36.4 36.4 36.4 37.9 35.3 44 16.6 1.0 4.0 NW 0.00 30.247
03/14/2003 11:30 a 37.7 37.7 37.7 40.2 35.9 42 16.7 1.0 7.0 SSE 0.00 30.253
03/14/2003 12:00 p 39.5 39.5 39.5 42.5 36.9 34 13.5 1.0 7.0 SSE 0.00 30.244
03/14/2003 12:30 p 43.5 43.5 43.5 44.8 42.5 34 17.0 1.0 9.0 SSE 0.00 30.227
03/14/2003 1:00 p 41.2 41.2 41.2 44.1 37.5 38 17.5 1.0 5.0 NNE 0.00 30.207
03/14/2003 1:30 p 37.0 37.0 37.0 37.5 36.6 39 14.4 2.0 6.0 SSE 0.00 30.194
03/14/2003 2:00 p 37.6 37.6 37.6 38.0 37.1 39 14.9 1.0 7.0 SSE 0.00 30.188
03/14/2003 2:30 p 38.1 38.1 38.1 38.3 37.8 36 13.5 1.0 6.0 SSE 0.00 30.184
03/14/2003 3:00 p 37.9 37.9 37.9 38.3 37.6 35 12.7 1.0 7.0 SSE 0.00 30.170
03/14/2003 3:30 p 38.0 38.0 38.0 38.2 37.7 34 12.1 1.0 5.0 SSE 0.00 30.174
03/14/2003 4:00 p 37.8 37.8 37.8 38.0 37.7 38 14.5 1.0 5.0 SSE 0.00 30.165
03/14/2003 4:30 p 37.4 37.4 37.4 37.8 36.9 37 13.5 0.0 3.0 SE 0.00 30.169
03/14/2003 5:00 p 36.5 36.5 36.5 36.9 36.1 36 12.1 1.0 5.0 SSE 0.00 30.167
03/14/2003 5:30 p 35.6 35.6 35.6 36.1 34.8 38 12.5 0.0 4.0 SSE 0.00 30.182
03/14/2003 6:00 p 33.8 33.8 33.8 34.8 33.1 47 15.7 0.0 2.0 SSE 0.00 30.180
03/14/2003 6:30 p 32.1 32.1 32.1 33.1 31.0 49 15.1 0.0 1.0 SSE 0.00 30.180
03/14/2003 7:00 p 30.1 30.1 30.1 31.0 29.0 54 15.5 0.0 0.0 --- 0.00 30.182
03/14/2003 7:30 p 28.4 28.4 28.4 29.0 27.9 64 17.8 0.0 0.0 --- 0.00 30.180
03/14/2003 8:00 p 27.6 27.6 27.6 28.0 27.2 65 17.4 0.0 0.0 --- 0.00 30.184
03/14/2003 8:30 p 27.1 27.1 27.1 27.3 27.0 68 18.0 0.0 0.0 --- 0.00 30.184
03/14/2003 9:00 p 26.9 26.9 26.9 27.3 26.7 65 16.7 0.0 1.0 --- 0.00 30.181
03/14/2003 9:30 p 27.6 27.6 27.6 27.9 27.2 63 16.7 0.0 1.0 SE 0.00 30.174
03/14/2003 10:00 p 26.8 26.8 26.8 27.2 26.3 65 16.6 0.0 0.0 --- 0.00 30.172
03/14/2003 10:30 p 27.2 27.2 27.2 27.9 26.3 65 17.0 0.0 1.0 ESE 0.00 30.167
03/14/2003 11:00 p 26.1 26.1 26.1 26.9 25.5 69 17.3 0.0 0.0 --- 0.00 30.169
03/14/2003 11:30 p 26.7 26.7 26.7 27.7 25.6 64 16.2 0.0 0.0 --- 0.00 30.168
03/15/2003 12:00 a 28.3 28.3 28.3 28.9 27.7 61 16.6 0.0 0.0 --- 0.00 30.170
03/15/2003 12:30 a 29.0 29.0 29.0 29.1 28.9 62 17.6 0.0 0.0 --- 0.00 30.163
03/15/2003 1:00 a 28.9 28.9 28.9 29.1 28.8 61 17.2 0.0 0.0 --- 0.00 30.155
03/15/2003 1:30 a 28.7 28.7 28.7 28.8 28.7 63 17.7 0.0 0.0 --- 0.00 30.151
03/15/2003 2:00 a 28.8 28.8 28.8 28.9 28.7 62 17.4 0.0 0.0 --- 0.00 30.139
03/15/2003 2:30 a 28.9 28.9 28.9 28.9 28.8 63 17.9 0.0 1.0 --- 0.00 30.129
03/15/2003 3:00 a 28.6 28.6 28.6 28.8 28.3 65 18.3 0.0 0.0 --- 0.00 30.126
03/15/2003 3:30 a 28.6 28.6 28.6 29.0 28.3 66 18.7 0.0 0.0 --- 0.00 30.126
03/15/2003 4:00 a 29.2 29.2 29.2 29.2 29.0 65 18.9 0.0 0.0 --- 0.00 30.132
03/15/2003 4:30 a 29.0 29.0 29.0 29.2 28.9 68 19.8 0.0 0.0 --- 0.00 30.143
03/15/2003 5:00 a 29.3 29.3 29.3 29.7 28.9 67 19.7 0.0 0.0 --- 0.00 30.140
03/15/2003 5:30 a 29.8 29.8 29.8 30.0 29.7 69 20.9 0.0 1.0 --- 0.00 30.136
03/15/2003 6:00 a 29.6 29.6 29.6 29.8 29.3 70 21.0 0.0 1.0 ESE 0.00 30.125
03/15/2003 6:30 a 29.5 29.5 29.5 29.8 29.3 70 20.9 0.0 0.0 --- 0.00 30.127
03/15/2003 7:00 a 29.9 29.9 29.9 30.9 29.6 69 21.0 0.0 0.0 --- 0.00 30.145
03/15/2003 7:30 a 32.1 32.1 32.1 33.4 31.0 64 21.3 0.0 1.0 --- 0.00 30.142
03/15/2003 8:00 a 36.3 36.3 36.3 37.6 33.4 60 23.8 0.0 2.0 SE 0.00 30.134
03/15/2003 8:30 a 36.3 36.3 36.3 38.4 35.6 57 22.5 0.0 3.0 SE 0.00 30.145
03/15/2003 9:00 a 38.7 38.7 38.7 39.5 38.4 57 24.8 0.0 3.0 ESE 0.00 30.141
03/15/2003 9:30 a 38.6 38.6 38.6 41.9 37.7 52 22.5 0.0 1.0 ESE 0.00 30.132
03/15/2003 10:00 a 45.5 45.5 45.5 47.7 42.0 42 23.8 1.0 3.0 S 0.00 30.108
03/15/2003 10:30 a 48.9 48.9 48.9 50.8 47.1 38 24.4 1.0 5.0 S 0.00 30.092
03/15/2003 11:00 a 50.2 50.2 50.2 52.2 48.8 38 25.6 1.0 6.0 S 0.00 30.087
03/15/2003 11:30 a 52.4 52.4 52.4 55.1 49.6 34 24.9 1.0 6.0 SSE 0.00 30.084
03/15/2003 12:00 p 55.1 55.1 55.1 58.8 52.5 27 21.7 1.0 6.0 S 0.00 30.080
03/15/2003 12:30 p 60.1 60.1 60.1 61.0 58.8 27 26.0 1.0 4.0 S 0.00 30.060
03/15/2003 1:00 p 57.1 57.1 57.1 61.0 53.0 33 28.3 1.0 5.0 S 0.00 30.040
03/15/2003 1:30 p 53.2 53.2 53.2 53.5 52.9 33 24.9 1.0 5.0 S 0.00 30.031
03/15/2003 2:00 p 53.9 53.9 53.9 54.2 53.5 33 25.5 1.0 4.0 SSE 0.00 30.009
03/15/2003 2:30 p 54.4 54.4 54.4 54.6 54.1 32 25.2 1.0 4.0 SSE 0.00 29.993
03/15/2003 3:00 p 54.1 54.1 54.1 54.3 53.9 32 24.9 1.0 4.0 SSE 0.00 29.985
03/15/2003 3:30 p 53.7 53.7 53.7 53.9 53.3 31 23.8 1.0 4.0 SSE 0.00 29.976
03/15/2003 4:00 p 53.3 53.3 53.3 53.5 53.2 31 23.5 0.0 3.0 S 0.00 29.976
03/15/2003 4:30 p 52.7 52.7 52.7 53.2 52.0 32 23.7 0.0 2.0 SE 0.00 29.973
03/15/2003 5:00 p 51.4 51.4 51.4 52.0 50.7 33 23.3 0.0 2.0 ESE 0.00 29.980
03/15/2003 5:30 p 49.6 49.6 49.6 50.8 48.2 38 25.1 0.0 0.0 --- 0.00 29.985
03/15/2003 6:00 p 47.2 47.2 47.2 48.2 46.0 40 24.1 0.0 1.0 --- 0.00 29.997
03/15/2003 6:30 p 44.4 44.4 44.4 46.0 42.9 46 24.9 0.0 0.0 --- 0.00 30.003
03/15/2003 7:00 p 42.0 42.0 42.0 43.0 40.8 51 25.2 0.0 0.0 --- 0.00 30.007
03/15/2003 7:30 p 41.0 41.0 41.0 41.7 40.4 60 28.2 0.0 1.0 --- 0.00 30.003
03/15/2003 8:00 p 39.0 39.0 39.0 40.3 37.9 61 26.7 0.0 0.0 --- 0.00 30.012
03/15/2003 8:30 p 36.9 36.9 36.9 37.9 36.1 63 25.5 0.0 0.0 --- 0.00 30.004
03/15/2003 9:00 p 35.8 35.8 35.8 36.2 35.3 68 26.3 0.0 0.0 --- 0.00 30.007
03/15/2003 9:30 p 35.0 35.0 35.0 35.3 34.7 71 26.6 0.0 0.0 --- 0.00 30.005
03/15/2003 10:00 p 34.7 34.7 34.7 35.2 34.0 74 27.3 0.0 0.0 --- 0.00 30.001
03/15/2003 10:30 p 33.3 33.3 33.3 34.0 33.0 76 26.6 0.0 0.0 --- 0.00 29.997
03/15/2003 11:00 p 32.9 32.9 32.9 33.3 32.5 80 27.4 0.0 0.0 --- 0.00 29.998
03/15/2003 11:30 p 31.9 31.9 31.9 32.6 31.3 81 26.7 0.0 0.0 --- 0.00 29.992
03/16/2003 12:00 a 31.2 31.2 31.2 31.4 30.9 82 26.4 0.0 0.0 --- 0.00 29.993
03/16/2003 12:30 a 30.5 30.5 30.5 30.8 30.4 84 26.3 0.0 0.0 --- 0.00 29.992
03/16/2003 1:00 a 30.0 30.0 30.0 30.4 29.9 84 25.8 0.0 0.0 --- 0.00 29.999
03/16/2003 1:30 a 29.9 29.9 29.9 30.1 29.7 84 25.7 0.0 0.0 --- 0.00 29.996
03/16/2003 2:00 a 29.8 29.8 29.8 29.9 29.7 86 26.1 0.0 0.0 --- 0.00 29.989
03/16/2003 2:30 a 29.7 29.7 29.7 30.0 29.4 86 26.0 0.0 0.0 --- 0.00 29.977
03/16/2003 3:00 a 29.2 29.2 29.2 29.4 29.0 87 25.8 0.0 0.0 --- 0.00 29.972
03/16/2003 3:30 a 29.0 29.0 29.0 29.2 28.9 88 25.9 0.0 0.0 --- 0.00 29.959
03/16/2003 4:00 a 28.7 28.7 28.7 28.9 28.6 89 25.9 0.0 0.0 --- 0.00 29.955
03/16/2003 4:30 a 28.8 28.8 28.8 29.0 28.7 89 26.0 0.0 0.0 --- 0.00 29.957
03/16/2003 5:00 a 28.6 28.6 28.6 28.8 28.3 89 25.8 0.0 0.0 --- 0.00 29.950
03/16/2003 5:30 a 28.5 28.5 28.5 28.7 28.3 89 25.7 0.0 0.0 --- 0.00 29.957
03/16/2003 6:00 a 28.4 28.4 28.4 29.0 28.3 90 25.8 0.0 0.0 --- 0.00 29.969
03/16/2003 6:30 a 31.3 31.3 31.3 33.3 29.0 85 27.3 0.0 0.0 --- 0.00 29.969
03/16/2003 7:00 a 34.1 34.1 34.1 35.3 33.3 81 28.9 0.0 0.0 --- 0.00 29.969
03/16/2003 7:30 a 37.9 37.9 37.9 43.3 35.3 66 27.6 0.0 0.0 --- 0.00 29.966
03/16/2003 8:00 a 48.2 48.2 48.2 51.7 43.4 53 31.9 0.0 1.0 --- 0.00 29.970
03/16/2003 8:30 a 51.3 51.3 51.3 54.0 50.2 50 33.3 0.0 1.0 ESE 0.00 29.966
03/16/2003 9:00 a 57.9 57.9 57.9 60.0 54.0 41 34.4 0.0 3.0 SE 0.00 29.973
03/16/2003 9:30 a 60.4 60.4 60.4 62.6 58.7 44 38.4 0.0 2.0 SE 0.00 29.968
03/16/2003 10:00 a 60.1 60.1 60.1 61.8 59.1 43 37.6 0.0 4.0 SSE 0.00 29.963
03/16/2003 10:30 a 62.6 62.6 62.6 63.8 60.9 44 40.4 0.0 4.0 SSE 0.00 29.961
03/16/2003 11:00 a 63.9 63.9 63.9 64.9 62.4 45 42.2 0.0 4.0 SSE 0.00 29.952
03/16/2003 11:30 a 66.2 66.2 66.2 67.9 63.8 43 43.1 1.0 5.0 SSE 0.00 29.946
03/16/2003 12:00 p 67.2 69.8 69.8 73.2 67.0 36 41.7 1.0 6.0 SSE 0.00 29.936
03/16/2003 12:30 p 73.0 74.8 74.8 75.6 73.2 35 45.3 1.0 6.0 SSE 0.00 29.917
03/16/2003 1:00 p 72.0 72.5 72.5 75.9 68.7 45 50.0 1.0 5.0 S 0.00 29.899
03/16/2003 1:30 p 66.0 68.4 68.4 68.9 68.0 45 46.3 1.0 5.0 S 0.00 29.885
03/16/2003 2:00 p 67.0 68.7 68.7 69.2 68.2 43 45.3 0.0 4.0 SSE 0.00 29.871
03/16/2003 2:30 p 67.0 68.9 68.9 69.3 67.9 45 46.7 0.0 5.0 S 0.00 29.858
03/16/2003 3:00 p 67.9 67.9 67.9 68.3 67.6 45 45.8 1.0 4.0 S 0.00 29.855
03/16/2003 3:30 p 66.0 68.4 68.4 69.0 67.8 45 46.3 0.0 3.0 S 0.00 29.837
03/16/2003 4:00 p 67.1 67.1 67.1 68.3 66.5 48 46.8 0.0 4.0 SSE 0.00 29.838
03/16/2003 4:30 p 65.9 65.9 65.9 66.5 65.4 50 46.8 0.0 2.0 SW 0.00 29.833
03/16/2003 5:00 p 64.6 64.6 64.6 65.4 63.8 52 46.6 0.0 2.0 SSW 0.00 29.825
03/16/2003 5:30 p 62.5 62.5 62.5 63.8 61.2 57 47.1 0.0 0.0 --- 0.00 29.818
03/16/2003 6:00 p 60.2 60.2 60.2 61.1 59.6 60 46.3 0.0 2.0 NE 0.00 29.815
03/16/2003 6:30 p 58.6 58.6 58.6 60.1 57.3 66 47.3 0.0 2.0 NNE 0.00 29.814
03/16/2003 7:00 p 56.3 56.3 56.3 57.3 55.3 71 47.0 0.0 1.0 --- 0.00 29.821
03/16/2003 7:30 p 54.9 54.9 54.9 56.3 54.6 74 46.8 0.0 2.0 NNE 0.00 29.824
03/16/2003 8:00 p 57.6 57.6 57.6 58.0 56.3 72 48.7 0.0 2.0 NNE 0.00 29.824
03/16/2003 8:30 p 57.0 57.0 57.0 57.9 55.6 76 49.5 0.0 2.0 NE 0.00 29.823
03/16/2003 9:00 p 53.8 53.8 53.8 55.6 52.3 82 48.4 0.0 0.0 --- 0.00 29.830
03/16/2003 9:30 p 51.5 51.5 51.5 52.3 50.8 84 46.8 0.0 0.0 --- 0.00 29.828
03/16/2003 10:00 p 50.8 50.8 50.8 51.0 50.7 82 45.5 0.0 0.0 --- 0.00 29.821
03/16/2003 10:30 p 50.2 50.2 50.2 50.8 49.8 85 45.9 0.0 0.0 --- 0.00 29.813
03/16/2003 11:00 p 50.7 50.7 50.7 50.8 50.5 84 46.0 0.0 0.0 --- 0.00 29.806
03/16/2003 11:30 p 50.1 50.1 50.1 50.7 49.5 86 46.1 0.0 0.0 --- 0.00 29.795
03/17/2003 12:00 a 48.7 48.7 48.7 49.6 48.4 88 45.3 0.0 0.0 --- 0.00 29.789
03/17/2003 12:30 a 48.6 48.6 48.6 49.1 48.3 85 44.3 0.0 0.0 --- 0.00 29.790
03/17/2003 1:00 a 49.2 49.2 49.2 49.4 49.0 91 46.7 0.0 0.0 --- 0.00 29.785
03/17/2003 1:30 a 49.0 49.0 49.0 49.2 48.9 93 47.1 0.0 0.0 --- 0.00 29.774
03/17/2003 2:00 a 48.9 48.9 48.9 49.2 48.7 94 47.3 0.0 0.0 --- 0.00 29.752
03/17/2003 2:30 a 49.0 49.0 49.0 49.2 48.9 94 47.4 0.0 0.0 --- 0.00 29.731
03/17/2003 3:00 a 48.9 48.9 48.9 48.9 48.7 94 47.3 0.0 0.0 --- 0.00 29.721
03/17/2003 3:30 a 48.5 48.5 48.5 48.8 48.2 94 46.9 0.0 0.0 --- 0.00 29.704
03/17/2003 4:00 a 47.8 47.8 47.8 48.4 47.2 94 46.2 0.0 0.0 --- 0.00 29.710
03/17/2003 4:30 a 47.1 47.1 47.1 47.4 46.9 95 45.7 0.0 0.0 --- 0.00 29.712
03/17/2003 5:00 a 46.4 46.4 46.4 47.2 45.4 94 44.8 0.0 0.0 --- 0.00 29.709
03/17/2003 5:30 a 44.6 44.6 44.6 45.4 44.1 94 43.0 0.0 0.0 --- 0.00 29.710
03/17/2003 6:00 a 44.5 44.5 44.5 45.4 44.3 95 43.2 0.0 0.0 --- 0.00 29.703
03/17/2003 6:30 a 45.4 45.4 45.4 45.6 45.1 94 43.8 0.0 0.0 --- 0.00 29.705
03/17/2003 7:00 a 45.4 45.4 45.4 46.2 44.8 95 44.1 0.0 0.0 --- 0.00 29.702
03/17/2003 7:30 a 49.6 49.6 49.6 54.5 45.9 90 46.8 0.0 0.0 --- 0.00 29.707
03/17/2003 8:00 a 58.3 58.3 58.3 60.9 54.6 73 49.7 0.0 2.0 NE 0.00 29.703
03/17/2003 8:30 a 63.1 63.1 63.1 66.4 60.3 59 48.6 0.0 2.0 NE 0.00 29.707
03/17/2003 9:00 a 65.6 65.6 65.6 68.2 62.3 65 53.5 0.0 3.0 N 0.00 29.716
03/17/2003 9:30 a 61.7 61.7 61.7 62.4 61.4 66 50.2 0.0 2.0 N 0.00 29.713
03/17/2003 10:00 a 64.7 64.7 64.7 67.0 61.7 60 50.5 0.0 2.0 NNE 0.00 29.701
03/17/2003 10:30 a 68.6 69.2 69.2 71.1 66.4 58 53.8 0.0 3.0 NNW 0.00 29.693
03/17/2003 11:00 a 68.8 69.9 69.9 71.3 68.3 54 52.5 1.0 5.0 N 0.00 29.692
03/17/2003 11:30 a 69.0 71.3 71.3 73.0 69.5 47 50.1 0.0 3.0 N 0.00 29.687
03/17/2003 12:00 p 72.4 72.8 72.8 73.3 72.3 47 51.4 1.0 3.0 N 0.00 29.674
03/17/2003 12:30 p 70.8 72.1 72.1 73.3 71.7 48 51.3 1.0 3.0 NNE 0.00 29.653
03/17/2003 1:00 p 72.6 72.7 72.7 73.2 71.9 48 51.9 0.0 2.0 N 0.00 29.633
03/17/2003 1:30 p 72.4 73.1 73.1 73.7 72.5 47 51.7 0.0 5.0 SSE 0.00 29.617
03/17/2003 2:00 p 70.9 72.0 72.0 73.1 71.3 49 51.8 0.0 3.0 SSE 0.00 29.604
03/17/2003 2:30 p 69.8 70.9 70.9 72.6 69.4 54 53.4 1.0 7.0 SSE 0.00 29.601
03/17/2003 3:00 p 68.2 69.0 69.0 69.4 68.8 56 52.7 0.0 3.0 SSE 0.00 29.602
03/17/2003 3:30 p 68.4 68.8 68.8 68.8 68.7 57 53.0 0.0 3.0 S 0.00 29.599
03/17/2003 4:00 p 67.8 68.2 68.2 68.8 67.6 59 53.3 1.0 4.0 SSE 0.00 29.600
03/17/2003 4:30 p 67.1 67.1 67.1 67.6 66.9 60 52.8 0.0 4.0 SSE 0.00 29.594
03/17/2003 5:00 p 66.9 66.9 66.9 67.3 66.1 62 53.5 0.0 3.0 SSE 0.00 29.592
03/17/2003 6:00 p 61.0 61.0 61.0 62.6 59.6 75 53.0 0.0 0.0 --- 0.00 29.601
03/17/2003 6:30 p 59.0 59.0 59.0 59.6 58.0 79 52.5 0.0 0.0 --- 0.00 29.600
03/17/2003 7:00 p 56.3 56.3 56.3 57.9 55.0 86 52.2 0.0 0.0 --- 0.00 29.606
03/17/2003 7:30 p 54.3 54.3 54.3 55.0 53.5 86 50.2 0.0 0.0 --- 0.00 29.605
03/17/2003 8:00 p 53.2 53.2 53.2 53.5 52.8 89 50.0 0.0 0.0 --- 0.00 29.607
03/17/2003 8:30 p 51.7 51.7 51.7 52.8 51.0 91 49.2 0.0 0.0 --- 0.00 29.603
03/17/2003 9:00 p 50.3 50.3 50.3 51.0 49.7 92 48.1 0.0 0.0 --- 0.00 29.600
03/17/2003 9:30 p 49.5 49.5 49.5 49.8 49.1 92 47.3 0.0 0.0 --- 0.00 29.603
03/17/2003 10:00 p 48.7 48.7 48.7 49.1 48.5 93 46.8 0.0 0.0 --- 0.00 29.599
03/17/2003 10:30 p 48.2 48.2 48.2 48.5 47.4 93 46.3 0.0 0.0 --- 0.00 29.598
03/17/2003 11:00 p 47.3 47.3 47.3 47.4 47.0 94 45.7 0.0 0.0 --- 0.00 29.592
03/17/2003 11:30 p 46.8 46.8 46.8 47.0 46.6 94 45.2 0.0 0.0 --- 0.00 29.586
03/18/2003 12:00 a 46.6 46.6 46.6 46.7 46.5 94 45.0 0.0 0.0 --- 0.00 29.580
03/18/2003 12:30 a 46.0 46.0 46.0 46.6 45.6 94 44.4 0.0 0.0 --- 0.00 29.583
03/18/2003 1:00 a 45.4 45.4 45.4 45.6 45.1 94 43.8 0.0 0.0 --- 0.00 29.586
03/18/2003 1:30 a 45.6 45.6 45.6 45.7 45.3 94 44.0 0.0 0.0 --- 0.00 29.588
03/18/2003 2:00 a 45.0 45.0 45.0 45.6 44.5 94 43.4 0.0 0.0 --- 0.00 29.595
03/18/2003 2:30 a 44.4 44.4 44.4 44.5 44.0 94 42.8 0.0 0.0 --- 0.00 29.596
03/18/2003 3:00 a 43.9 43.9 43.9 44.3 43.6 94 42.3 0.0 0.0 --- 0.00 29.591
03/18/2003 3:30 a 44.0 44.0 44.0 44.2 43.7 94 42.4 0.0 0.0 --- 0.00 29.592
03/18/2003 4:00 a 43.1 43.1 43.1 43.7 42.8 94 41.5 0.0 0.0 --- 0.00 29.590
03/18/2003 4:30 a 43.8 43.8 43.8 45.5 42.7 95 42.5 0.0 0.0 --- 0.00 29.585
03/18/2003 5:00 a 44.0 44.0 44.0 45.3 43.2 94 42.4 0.0 0.0 --- 0.00 29.586
03/18/2003 5:30 a 43.4 43.4 43.4 43.7 43.1 94 41.8 0.0 0.0 --- 0.00 29.597
03/18/2003 6:00 a 44.3 44.3 44.3 45.9 43.0 95 43.0 0.0 0.0 --- 0.00 29.600
03/18/2003 6:30 a 47.0 47.0 47.0 47.7 45.8 91 44.5 0.0 0.0 --- 0.00 29.609
03/18/2003 7:00 a 49.0 49.0 49.0 50.1 47.6 85 44.7 0.0 1.0 SSE 0.00 29.615
03/18/2003 7:30 a 52.2 52.2 52.2 55.0 50.1 71 43.1 0.0 2.0 SSE 0.00 29.628
03/18/2003 8:00 a 57.5 57.5 57.5 60.4 55.0 58 42.9 0.0 2.0 WSW 0.00 29.640
03/18/2003 8:30 a 63.3 63.3 63.3 65.1 60.4 49 43.8 0.0 5.0 SSW 0.00 29.657
03/18/2003 9:00 a 64.5 64.5 64.5 66.6 63.4 46 43.3 0.0 3.0 W 0.00 29.663
03/18/2003 9:30 a 67.5 67.5 67.5 68.3 66.6 44 44.8 0.0 4.0 S 0.00 29.668
03/18/2003 10:00 a 67.2 67.2 67.2 68.3 66.5 44 44.6 1.0 3.0 SSW 0.00 29.665
03/18/2003 10:30 a 67.0 68.9 68.9 70.5 67.8 42 44.9 1.0 6.0 NNW 0.00 29.660
03/18/2003 11:00 a 68.0 70.1 70.1 71.3 68.8 41 45.3 1.0 6.0 SW 0.00 29.658
03/18/2003 11:30 a 68.0 70.3 70.3 71.6 69.4 40 44.9 2.0 6.0 NW 0.00 29.657
03/18/2003 12:00 p 68.6 70.7 70.7 72.4 69.3 38 43.9 1.0 6.0 NW 0.00 29.650
03/18/2003 12:30 p 68.8 70.8 70.8 72.0 69.8 39 44.6 1.0 5.0 W 0.00 29.650